<?xml version="1.0" encoding="UTF-8" standalone="no" ?>
<gpx xmlns="http://www.topografix.com/GPX/1/1" xmlns:xsi="http://www.w3.org/2001/XMLSchema-instance" xsi:schemaLocation="http://www.topografix.com/GPX/1/1 http://www.topografix.com/GPX/1/1/gpx.xsd" version="1.1" creator="VisuGPX - https://www.visugpx.com">
  <metadata>
    <name>Lacapelle - Figeac</name>
    <desc><![CDATA[

]]></desc>
  </metadata>
  <trk>
    <name><![CDATA[Lacapelle - Figeac]]></name>
    <extensions>
      <line xmlns="http://www.topografix.com/GPX/gpx_style/0/2">
        <color>0008ff</color>
        <opacity>1</opacity>
        <width>9</width>
      </line>
    </extensions>
    <trkseg>
      <trkpt lat="44.73281" lon="1.91704">
        <ele>391.2</ele>
      </trkpt>
      <trkpt lat="44.73284" lon="1.91715">
        <ele>391.1</ele>
      </trkpt>
      <trkpt lat="44.73287" lon="1.91722">
        <ele>391.2</ele>
      </trkpt>
      <trkpt lat="44.73292" lon="1.9173">
        <ele>391.3</ele>
      </trkpt>
      <trkpt lat="44.73307" lon="1.91754">
        <ele>391.8</ele>
      </trkpt>
      <trkpt lat="44.73314" lon="1.9177">
        <ele>392.4</ele>
      </trkpt>
      <trkpt lat="44.7332" lon="1.91782">
        <ele>393</ele>
      </trkpt>
      <trkpt lat="44.733" lon="1.91838">
        <ele>392.8</ele>
      </trkpt>
      <trkpt lat="44.73272" lon="1.91913">
        <ele>394.2</ele>
      </trkpt>
      <trkpt lat="44.73253" lon="1.91966">
        <ele>393.2</ele>
      </trkpt>
      <trkpt lat="44.73242" lon="1.91962">
        <ele>392.6</ele>
      </trkpt>
      <trkpt lat="44.73208" lon="1.91952">
        <ele>391</ele>
      </trkpt>
      <trkpt lat="44.73179" lon="1.91945">
        <ele>389.6</ele>
      </trkpt>
      <trkpt lat="44.73162" lon="1.91941">
        <ele>388.8</ele>
      </trkpt>
      <trkpt lat="44.73143" lon="1.91939">
        <ele>388.1</ele>
      </trkpt>
      <trkpt lat="44.73126" lon="1.91936">
        <ele>387.6</ele>
      </trkpt>
      <trkpt lat="44.73123" lon="1.91938">
        <ele>387.4</ele>
      </trkpt>
      <trkpt lat="44.73111" lon="1.91947">
        <ele>387</ele>
      </trkpt>
      <trkpt lat="44.73095" lon="1.91958">
        <ele>386.4</ele>
      </trkpt>
      <trkpt lat="44.73087" lon="1.91964">
        <ele>386.1</ele>
      </trkpt>
      <trkpt lat="44.73081" lon="1.91967">
        <ele>385.9</ele>
      </trkpt>
      <trkpt lat="44.73063" lon="1.91979">
        <ele>385.3</ele>
      </trkpt>
      <trkpt lat="44.73063" lon="1.9198">
        <ele>385.3</ele>
      </trkpt>
      <trkpt lat="44.73055" lon="1.91987">
        <ele>385.1</ele>
      </trkpt>
      <trkpt lat="44.73041" lon="1.91999">
        <ele>384.9</ele>
      </trkpt>
      <trkpt lat="44.73028" lon="1.9201">
        <ele>385.2</ele>
      </trkpt>
      <trkpt lat="44.73016" lon="1.9202">
        <ele>385.5</ele>
      </trkpt>
      <trkpt lat="44.73008" lon="1.92027">
        <ele>385.7</ele>
      </trkpt>
      <trkpt lat="44.7297" lon="1.92053">
        <ele>385.8</ele>
      </trkpt>
      <trkpt lat="44.72945" lon="1.92072">
        <ele>385.3</ele>
      </trkpt>
      <trkpt lat="44.72941" lon="1.92075">
        <ele>385.2</ele>
      </trkpt>
      <trkpt lat="44.72937" lon="1.9208">
        <ele>385.1</ele>
      </trkpt>
      <trkpt lat="44.72928" lon="1.92093">
        <ele>384.9</ele>
      </trkpt>
      <trkpt lat="44.72916" lon="1.92115">
        <ele>384.3</ele>
      </trkpt>
      <trkpt lat="44.72914" lon="1.92118">
        <ele>384.2</ele>
      </trkpt>
      <trkpt lat="44.72911" lon="1.92122">
        <ele>384</ele>
      </trkpt>
      <trkpt lat="44.72905" lon="1.92131">
        <ele>383.6</ele>
      </trkpt>
      <trkpt lat="44.72896" lon="1.92141">
        <ele>383</ele>
      </trkpt>
      <trkpt lat="44.72889" lon="1.92153">
        <ele>382.6</ele>
      </trkpt>
      <trkpt lat="44.72884" lon="1.92161">
        <ele>382.2</ele>
      </trkpt>
      <trkpt lat="44.72879" lon="1.92171">
        <ele>381.9</ele>
      </trkpt>
      <trkpt lat="44.72876" lon="1.9218">
        <ele>381.7</ele>
      </trkpt>
      <trkpt lat="44.72872" lon="1.92192">
        <ele>381.6</ele>
      </trkpt>
      <trkpt lat="44.72868" lon="1.92205">
        <ele>381.5</ele>
      </trkpt>
      <trkpt lat="44.72865" lon="1.92223">
        <ele>381.5</ele>
      </trkpt>
      <trkpt lat="44.72863" lon="1.92231">
        <ele>381.5</ele>
      </trkpt>
      <trkpt lat="44.72861" lon="1.92238">
        <ele>381.4</ele>
      </trkpt>
      <trkpt lat="44.7286" lon="1.92239">
        <ele>374.236</ele>
        <time>2018-08-02T10:34:14Z</time>
      </trkpt>
      <trkpt lat="44.7286" lon="1.92239">
        <ele>374.236</ele>
        <time>2018-08-02T10:34:14Z</time>
      </trkpt>
      <trkpt lat="44.7286" lon="1.92239">
        <ele>374.236</ele>
        <time>2018-08-02T10:34:14Z</time>
      </trkpt>
      <trkpt lat="44.7286" lon="1.92239">
        <ele>374.236</ele>
        <time>2018-08-02T10:34:14Z</time>
      </trkpt>
      <trkpt lat="44.7286" lon="1.92239">
        <ele>374.236</ele>
        <time>2018-08-02T10:34:14Z</time>
      </trkpt>
      <trkpt lat="44.7286" lon="1.92239">
        <ele>374.236</ele>
        <time>2018-08-02T10:34:14Z</time>
      </trkpt>
      <trkpt lat="44.7286" lon="1.92239">
        <ele>374.236</ele>
        <time>2018-08-02T10:34:14Z</time>
      </trkpt>
      <trkpt lat="44.7284" lon="1.92292">
        <ele>372.228</ele>
        <time>2018-08-02T10:34:34Z</time>
      </trkpt>
      <trkpt lat="44.72835" lon="1.92336">
        <ele>380.117</ele>
        <time>2018-07-31T13:59:01Z</time>
      </trkpt>
      <trkpt lat="44.72816" lon="1.92446">
        <ele>380.77</ele>
        <time>2018-07-31T13:58:41Z</time>
      </trkpt>
      <trkpt lat="44.72798" lon="1.92536">
        <ele>379.913</ele>
        <time>2018-07-31T13:58:21Z</time>
      </trkpt>
      <trkpt lat="44.72792" lon="1.92599">
        <ele>380.497</ele>
        <time>2018-07-31T13:58:01Z</time>
      </trkpt>
      <trkpt lat="44.72788" lon="1.92638">
        <ele>380.323</ele>
        <time>2018-07-31T13:57:41Z</time>
      </trkpt>
      <trkpt lat="44.7279" lon="1.92661">
        <ele>378.125</ele>
        <time>2018-07-31T13:57:21Z</time>
      </trkpt>
      <trkpt lat="44.72783" lon="1.92719">
        <ele>374.108</ele>
        <time>2018-07-31T13:57:01Z</time>
      </trkpt>
      <trkpt lat="44.72783" lon="1.92731">
        <ele>374.671</ele>
        <time>2018-07-31T13:56:41Z</time>
      </trkpt>
      <trkpt lat="44.72779" lon="1.92746">
        <ele>375.736</ele>
        <time>2018-07-31T13:56:21Z</time>
      </trkpt>
      <trkpt lat="44.72719" lon="1.92743">
        <ele>375.15</ele>
        <time>2018-07-31T13:56:01Z</time>
      </trkpt>
      <trkpt lat="44.72695" lon="1.92741">
        <ele>372.479</ele>
        <time>2018-07-31T13:55:41Z</time>
      </trkpt>
      <trkpt lat="44.72664" lon="1.92741">
        <ele>371.791</ele>
        <time>2018-07-31T13:55:21Z</time>
      </trkpt>
      <trkpt lat="44.72639" lon="1.92759">
        <ele>372.31</ele>
        <time>2018-07-31T13:55:01Z</time>
      </trkpt>
      <trkpt lat="44.72621" lon="1.92774">
        <ele>373.413</ele>
        <time>2018-07-31T13:54:41Z</time>
      </trkpt>
      <trkpt lat="44.72609" lon="1.92774">
        <ele>373.866</ele>
        <time>2018-07-31T13:54:21Z</time>
      </trkpt>
      <trkpt lat="44.72596" lon="1.92774">
        <ele>374.259</ele>
        <time>2018-07-31T13:54:01Z</time>
      </trkpt>
      <trkpt lat="44.72495" lon="1.92703">
        <ele>374.203</ele>
        <time>2018-07-31T13:53:41Z</time>
      </trkpt>
      <trkpt lat="44.72485" lon="1.92704">
        <ele>374.623</ele>
        <time>2018-07-31T13:53:21Z</time>
      </trkpt>
      <trkpt lat="44.7247" lon="1.92734">
        <ele>375.008</ele>
        <time>2018-07-31T13:53:01Z</time>
      </trkpt>
      <trkpt lat="44.72451" lon="1.92768">
        <ele>375.087</ele>
        <time>2018-07-31T13:52:41Z</time>
      </trkpt>
      <trkpt lat="44.72415" lon="1.92857">
        <ele>376.132</ele>
        <time>2018-07-31T13:52:21Z</time>
      </trkpt>
      <trkpt lat="44.72386" lon="1.92916">
        <ele>378.936</ele>
        <time>2018-07-31T13:52:01Z</time>
      </trkpt>
      <trkpt lat="44.72372" lon="1.92931">
        <ele>378.285</ele>
        <time>2018-07-31T13:51:41Z</time>
      </trkpt>
      <trkpt lat="44.72368" lon="1.92939">
        <ele>378.047</ele>
        <time>2018-07-31T13:51:21Z</time>
      </trkpt>
      <trkpt lat="44.72366" lon="1.92965">
        <ele>377.156</ele>
        <time>2018-07-31T13:51:01Z</time>
      </trkpt>
      <trkpt lat="44.72347" lon="1.93024">
        <ele>379.839</ele>
        <time>2018-07-31T13:50:41Z</time>
      </trkpt>
      <trkpt lat="44.72335" lon="1.93054">
        <ele>380.972</ele>
        <time>2018-07-31T13:50:21Z</time>
      </trkpt>
      <trkpt lat="44.72325" lon="1.9314">
        <ele>382.025</ele>
        <time>2018-07-31T13:50:01Z</time>
      </trkpt>
      <trkpt lat="44.72322" lon="1.93194">
        <ele>384.026</ele>
        <time>2018-07-31T13:49:41Z</time>
      </trkpt>
      <trkpt lat="44.72304" lon="1.93269">
        <ele>387.108</ele>
        <time>2018-07-31T13:49:21Z</time>
      </trkpt>
      <trkpt lat="44.72283" lon="1.93344">
        <ele>386.908</ele>
        <time>2018-07-31T13:49:01Z</time>
      </trkpt>
      <trkpt lat="44.72276" lon="1.93374">
        <ele>385.654</ele>
        <time>2018-07-31T13:48:41Z</time>
      </trkpt>
      <trkpt lat="44.72267" lon="1.93447">
        <ele>386.039</ele>
        <time>2018-07-31T13:48:21Z</time>
      </trkpt>
      <trkpt lat="44.72267" lon="1.93478">
        <ele>386.093</ele>
        <time>2018-07-31T13:48:01Z</time>
      </trkpt>
      <trkpt lat="44.72265" lon="1.93496">
        <ele>386.052</ele>
        <time>2018-07-31T13:47:41Z</time>
      </trkpt>
      <trkpt lat="44.72252" lon="1.93544">
        <ele>386.094</ele>
        <time>2018-07-31T13:47:21Z</time>
      </trkpt>
      <trkpt lat="44.72233" lon="1.93583">
        <ele>387.863</ele>
        <time>2018-07-31T13:47:01Z</time>
      </trkpt>
      <trkpt lat="44.7221" lon="1.93643">
        <ele>389.576</ele>
        <time>2018-07-31T13:46:41Z</time>
      </trkpt>
      <trkpt lat="44.72194" lon="1.93671">
        <ele>390.299</ele>
        <time>2018-07-31T13:46:21Z</time>
      </trkpt>
      <trkpt lat="44.72182" lon="1.93712">
        <ele>392.421</ele>
        <time>2018-07-31T13:46:01Z</time>
      </trkpt>
      <trkpt lat="44.72158" lon="1.9377">
        <ele>399.041</ele>
        <time>2018-07-31T13:45:41Z</time>
      </trkpt>
      <trkpt lat="44.72149" lon="1.93813">
        <ele>402.505</ele>
        <time>2018-07-31T13:45:21Z</time>
      </trkpt>
      <trkpt lat="44.72146" lon="1.93856">
        <ele>403.808</ele>
        <time>2018-07-31T13:45:01Z</time>
      </trkpt>
      <trkpt lat="44.72143" lon="1.93905">
        <ele>405.774</ele>
        <time>2018-07-31T13:44:41Z</time>
      </trkpt>
      <trkpt lat="44.72115" lon="1.94012">
        <ele>409.649</ele>
        <time>2018-07-31T13:44:21Z</time>
      </trkpt>
      <trkpt lat="44.72104" lon="1.94062">
        <ele>414.493</ele>
        <time>2018-07-31T13:44:01Z</time>
      </trkpt>
      <trkpt lat="44.72076" lon="1.94169">
        <ele>415.992</ele>
        <time>2018-07-31T13:43:41Z</time>
      </trkpt>
      <trkpt lat="44.7207" lon="1.94197">
        <ele>417.194</ele>
        <time>2018-07-31T13:43:21Z</time>
      </trkpt>
      <trkpt lat="44.72062" lon="1.94225">
        <ele>418.683</ele>
        <time>2018-07-31T13:43:01Z</time>
      </trkpt>
      <trkpt lat="44.72031" lon="1.94269">
        <ele>425.066</ele>
        <time>2018-07-31T13:42:41Z</time>
      </trkpt>
      <trkpt lat="44.72009" lon="1.94306">
        <ele>424.719</ele>
        <time>2018-07-31T13:42:21Z</time>
      </trkpt>
      <trkpt lat="44.72003" lon="1.94318">
        <ele>424.462</ele>
        <time>2018-07-31T13:42:01Z</time>
      </trkpt>
      <trkpt lat="44.71972" lon="1.94392">
        <ele>429.183</ele>
        <time>2018-07-31T13:41:41Z</time>
      </trkpt>
      <trkpt lat="44.71963" lon="1.94411">
        <ele>431.611</ele>
        <time>2018-07-31T13:41:21Z</time>
      </trkpt>
      <trkpt lat="44.7195" lon="1.94436">
        <ele>433.508</ele>
        <time>2018-07-31T13:41:01Z</time>
      </trkpt>
      <trkpt lat="44.71925" lon="1.94468">
        <ele>436.738</ele>
        <time>2018-07-31T13:40:41Z</time>
      </trkpt>
      <trkpt lat="44.71904" lon="1.9449">
        <ele>438.833</ele>
        <time>2018-07-31T13:40:21Z</time>
      </trkpt>
      <trkpt lat="44.71839" lon="1.94539">
        <ele>443.467</ele>
        <time>2018-07-31T13:40:01Z</time>
      </trkpt>
      <trkpt lat="44.71789" lon="1.94575">
        <ele>450.586</ele>
        <time>2018-07-31T13:39:41Z</time>
      </trkpt>
      <trkpt lat="44.71764" lon="1.94591">
        <ele>455.648</ele>
        <time>2018-07-31T13:39:21Z</time>
      </trkpt>
      <trkpt lat="44.71736" lon="1.94581">
        <ele>460.557</ele>
        <time>2018-07-31T13:39:01Z</time>
      </trkpt>
      <trkpt lat="44.71692" lon="1.94575">
        <ele>468.45</ele>
        <time>2018-07-31T13:38:41Z</time>
      </trkpt>
      <trkpt lat="44.71632" lon="1.94586">
        <ele>482.443</ele>
        <time>2018-07-31T13:38:21Z</time>
      </trkpt>
      <trkpt lat="44.71561" lon="1.94601">
        <ele>485.892</ele>
        <time>2018-07-31T13:38:01Z</time>
      </trkpt>
      <trkpt lat="44.71545" lon="1.9462">
        <ele>486.873</ele>
        <time>2018-07-31T13:37:41Z</time>
      </trkpt>
      <trkpt lat="44.71547" lon="1.94649">
        <ele>485.92</ele>
        <time>2018-07-31T13:37:21Z</time>
      </trkpt>
      <trkpt lat="44.71569" lon="1.94715">
        <ele>487.408</ele>
        <time>2018-07-31T13:37:01Z</time>
      </trkpt>
      <trkpt lat="44.71579" lon="1.94758">
        <ele>488.881</ele>
        <time>2018-07-31T13:36:41Z</time>
      </trkpt>
      <trkpt lat="44.71571" lon="1.94785">
        <ele>492.916</ele>
        <time>2018-07-31T13:36:21Z</time>
      </trkpt>
      <trkpt lat="44.71556" lon="1.94798">
        <ele>499.85</ele>
        <time>2018-07-31T13:36:01Z</time>
      </trkpt>
      <trkpt lat="44.71524" lon="1.94817">
        <ele>508.389</ele>
        <time>2018-07-31T13:35:41Z</time>
      </trkpt>
      <trkpt lat="44.71503" lon="1.94804">
        <ele>512.481</ele>
        <time>2018-07-31T13:35:21Z</time>
      </trkpt>
      <trkpt lat="44.71484" lon="1.94792">
        <ele>515.15</ele>
        <time>2018-07-31T13:35:01Z</time>
      </trkpt>
      <trkpt lat="44.71475" lon="1.94792">
        <ele>516.683</ele>
        <time>2018-07-31T13:34:41Z</time>
      </trkpt>
      <trkpt lat="44.71466" lon="1.94799">
        <ele>518.386</ele>
        <time>2018-07-31T13:34:21Z</time>
      </trkpt>
      <trkpt lat="44.71459" lon="1.94816">
        <ele>519.248</ele>
        <time>2018-07-31T13:34:01Z</time>
      </trkpt>
      <trkpt lat="44.71448" lon="1.94821">
        <ele>520.661</ele>
        <time>2018-07-31T13:33:41Z</time>
      </trkpt>
      <trkpt lat="44.71419" lon="1.94821">
        <ele>526.617</ele>
        <time>2018-07-31T13:33:21Z</time>
      </trkpt>
      <trkpt lat="44.7141" lon="1.94826">
        <ele>528.508</ele>
        <time>2018-07-31T13:33:01Z</time>
      </trkpt>
      <trkpt lat="44.71369" lon="1.94853">
        <ele>538.146</ele>
        <time>2018-07-31T13:32:41Z</time>
      </trkpt>
      <trkpt lat="44.71337" lon="1.94877">
        <ele>543.471</ele>
        <time>2018-07-31T13:32:21Z</time>
      </trkpt>
      <trkpt lat="44.71297" lon="1.94898">
        <ele>545.855</ele>
        <time>2018-07-31T13:32:01Z</time>
      </trkpt>
      <trkpt lat="44.71281" lon="1.94913">
        <ele>546.924</ele>
        <time>2018-07-31T13:31:41Z</time>
      </trkpt>
      <trkpt lat="44.71267" lon="1.94936">
        <ele>547.316</ele>
        <time>2018-07-31T13:31:21Z</time>
      </trkpt>
      <trkpt lat="44.71261" lon="1.94962">
        <ele>548.085</ele>
        <time>2018-07-31T13:31:01Z</time>
      </trkpt>
      <trkpt lat="44.71262" lon="1.94984">
        <ele>547.968</ele>
        <time>2018-07-31T13:30:41Z</time>
      </trkpt>
      <trkpt lat="44.71249" lon="1.95036">
        <ele>548.571</ele>
        <time>2018-07-31T13:30:21Z</time>
      </trkpt>
      <trkpt lat="44.71238" lon="1.95071">
        <ele>548.155</ele>
        <time>2018-07-31T13:30:01Z</time>
      </trkpt>
      <trkpt lat="44.71232" lon="1.95088">
        <ele>548.407</ele>
        <time>2018-07-31T13:29:41Z</time>
      </trkpt>
      <trkpt lat="44.71222" lon="1.95115">
        <ele>549.017</ele>
        <time>2018-07-31T13:29:21Z</time>
      </trkpt>
      <trkpt lat="44.71217" lon="1.95153">
        <ele>550.108</ele>
        <time>2018-07-31T13:29:01Z</time>
      </trkpt>
      <trkpt lat="44.71213" lon="1.95199">
        <ele>551.697</ele>
        <time>2018-07-31T13:28:41Z</time>
      </trkpt>
      <trkpt lat="44.71207" lon="1.9521">
        <ele>551.522</ele>
        <time>2018-07-31T13:28:21Z</time>
      </trkpt>
      <trkpt lat="44.71213" lon="1.95271">
        <ele>550.566</ele>
        <time>2018-07-31T13:28:01Z</time>
      </trkpt>
      <trkpt lat="44.71211" lon="1.95291">
        <ele>551.375</ele>
        <time>2018-07-31T13:27:41Z</time>
      </trkpt>
      <trkpt lat="44.71202" lon="1.95365">
        <ele>553.667</ele>
        <time>2018-07-31T13:27:21Z</time>
      </trkpt>
      <trkpt lat="44.71193" lon="1.95403">
        <ele>554.376</ele>
        <time>2018-07-31T13:27:01Z</time>
      </trkpt>
      <trkpt lat="44.71186" lon="1.95427">
        <ele>553.079</ele>
        <time>2018-07-31T13:26:41Z</time>
      </trkpt>
      <trkpt lat="44.71178" lon="1.95438">
        <ele>551.282</ele>
        <time>2018-07-31T13:26:21Z</time>
      </trkpt>
      <trkpt lat="44.71151" lon="1.95404">
        <ele>546.823</ele>
        <time>2018-07-31T13:26:01Z</time>
      </trkpt>
      <trkpt lat="44.7114" lon="1.95384">
        <ele>544.683</ele>
        <time>2018-07-31T13:25:41Z</time>
      </trkpt>
      <trkpt lat="44.71135" lon="1.95361">
        <ele>541.511</ele>
        <time>2018-07-31T13:25:21Z</time>
      </trkpt>
      <trkpt lat="44.71103" lon="1.95338">
        <ele>539.808</ele>
        <time>2018-07-31T13:25:01Z</time>
      </trkpt>
      <trkpt lat="44.71064" lon="1.95307">
        <ele>545.394</ele>
        <time>2018-07-31T13:24:41Z</time>
      </trkpt>
      <trkpt lat="44.71027" lon="1.95276">
        <ele>546.699</ele>
        <time>2018-07-31T13:24:21Z</time>
      </trkpt>
      <trkpt lat="44.70992" lon="1.95256">
        <ele>541.873</ele>
        <time>2018-07-31T13:24:01Z</time>
      </trkpt>
      <trkpt lat="44.70931" lon="1.95265">
        <ele>542.992</ele>
        <time>2018-07-31T13:23:41Z</time>
      </trkpt>
      <trkpt lat="44.70888" lon="1.9527">
        <ele>541.244</ele>
        <time>2018-07-31T13:23:21Z</time>
      </trkpt>
      <trkpt lat="44.70838" lon="1.95264">
        <ele>538.883</ele>
        <time>2018-07-31T13:23:01Z</time>
      </trkpt>
      <trkpt lat="44.70821" lon="1.95269">
        <ele>537.986</ele>
        <time>2018-07-31T13:22:41Z</time>
      </trkpt>
      <trkpt lat="44.70788" lon="1.95296">
        <ele>536.669</ele>
        <time>2018-07-31T13:22:21Z</time>
      </trkpt>
      <trkpt lat="44.70737" lon="1.95339">
        <ele>533.139</ele>
        <time>2018-07-31T13:22:01Z</time>
      </trkpt>
      <trkpt lat="44.70684" lon="1.95378">
        <ele>531.801</ele>
        <time>2018-07-31T13:21:41Z</time>
      </trkpt>
      <trkpt lat="44.7066" lon="1.95388">
        <ele>531.221</ele>
        <time>2018-07-31T13:21:21Z</time>
      </trkpt>
      <trkpt lat="44.70637" lon="1.95393">
        <ele>529.508</ele>
        <time>2018-07-31T13:21:01Z</time>
      </trkpt>
      <trkpt lat="44.70621" lon="1.95402">
        <ele>528.425</ele>
        <time>2018-07-31T13:20:41Z</time>
      </trkpt>
      <trkpt lat="44.70605" lon="1.95417">
        <ele>526.46</ele>
        <time>2018-07-31T13:20:21Z</time>
      </trkpt>
      <trkpt lat="44.70596" lon="1.95431">
        <ele>526.314</ele>
        <time>2018-07-31T13:20:01Z</time>
      </trkpt>
      <trkpt lat="44.7057" lon="1.95486">
        <ele>526.513</ele>
        <time>2018-07-31T13:19:41Z</time>
      </trkpt>
      <trkpt lat="44.70557" lon="1.95504">
        <ele>525.615</ele>
        <time>2018-07-31T13:19:21Z</time>
      </trkpt>
      <trkpt lat="44.7055" lon="1.95513">
        <ele>525.174</ele>
        <time>2018-07-31T13:19:01Z</time>
      </trkpt>
      <trkpt lat="44.70537" lon="1.95522">
        <ele>524.047</ele>
        <time>2018-07-31T13:18:41Z</time>
      </trkpt>
      <trkpt lat="44.70508" lon="1.95533">
        <ele>522.85</ele>
        <time>2018-07-31T13:18:21Z</time>
      </trkpt>
      <trkpt lat="44.70482" lon="1.95552">
        <ele>521.849</ele>
        <time>2018-07-31T13:18:01Z</time>
      </trkpt>
      <trkpt lat="44.70449" lon="1.95587">
        <ele>519.502</ele>
        <time>2018-07-31T13:17:41Z</time>
      </trkpt>
      <trkpt lat="44.70433" lon="1.95611">
        <ele>517.722</ele>
        <time>2018-07-31T13:17:21Z</time>
      </trkpt>
      <trkpt lat="44.70409" lon="1.95664">
        <ele>514.808</ele>
        <time>2018-07-31T13:17:01Z</time>
      </trkpt>
      <trkpt lat="44.70391" lon="1.95701">
        <ele>512.886</ele>
        <time>2018-07-31T13:16:41Z</time>
      </trkpt>
      <trkpt lat="44.70382" lon="1.9572">
        <ele>511.361</ele>
        <time>2018-07-31T13:16:21Z</time>
      </trkpt>
      <trkpt lat="44.70381" lon="1.95732">
        <ele>511.145</ele>
        <time>2018-07-31T13:16:01Z</time>
      </trkpt>
      <trkpt lat="44.70386" lon="1.95746">
        <ele>511.624</ele>
        <time>2018-07-31T13:15:41Z</time>
      </trkpt>
      <trkpt lat="44.70411" lon="1.95765">
        <ele>512.596</ele>
        <time>2018-07-31T13:15:21Z</time>
      </trkpt>
      <trkpt lat="44.70419" lon="1.95771">
        <ele>513.245</ele>
        <time>2018-07-31T13:15:01Z</time>
      </trkpt>
      <trkpt lat="44.70425" lon="1.95801">
        <ele>513.448</ele>
        <time>2018-07-31T13:14:41Z</time>
      </trkpt>
      <trkpt lat="44.70428" lon="1.95834">
        <ele>511.131</ele>
        <time>2018-07-31T13:14:21Z</time>
      </trkpt>
      <trkpt lat="44.70432" lon="1.9586">
        <ele>507.454</ele>
        <time>2018-07-31T13:14:01Z</time>
      </trkpt>
      <trkpt lat="44.70437" lon="1.9589">
        <ele>504.756</ele>
        <time>2018-07-31T13:13:41Z</time>
      </trkpt>
      <trkpt lat="44.70437" lon="1.95911">
        <ele>505.311</ele>
        <time>2018-07-31T13:13:21Z</time>
      </trkpt>
      <trkpt lat="44.70428" lon="1.95928">
        <ele>505.008</ele>
        <time>2018-07-31T13:13:01Z</time>
      </trkpt>
      <trkpt lat="44.70382" lon="1.95994">
        <ele>499.117</ele>
        <time>2018-07-31T13:12:41Z</time>
      </trkpt>
      <trkpt lat="44.70338" lon="1.96069">
        <ele>499.782</ele>
        <time>2018-07-31T13:12:21Z</time>
      </trkpt>
      <trkpt lat="44.70294" lon="1.96148">
        <ele>496.156</ele>
        <time>2018-07-31T13:12:01Z</time>
      </trkpt>
      <trkpt lat="44.70269" lon="1.96182">
        <ele>496.575</ele>
        <time>2018-07-31T13:11:41Z</time>
      </trkpt>
      <trkpt lat="44.70195" lon="1.96187">
        <ele>493.997</ele>
        <time>2018-07-31T13:11:21Z</time>
      </trkpt>
      <trkpt lat="44.70124" lon="1.96182">
        <ele>493.246</ele>
        <time>2018-07-31T13:11:01Z</time>
      </trkpt>
      <trkpt lat="44.70106" lon="1.96188">
        <ele>494.039</ele>
        <time>2018-07-31T13:10:41Z</time>
      </trkpt>
      <trkpt lat="44.70097" lon="1.96193">
        <ele>494.422</ele>
        <time>2018-07-31T13:10:21Z</time>
      </trkpt>
      <trkpt lat="44.70079" lon="1.96221">
        <ele>497.628</ele>
        <time>2018-07-31T13:10:01Z</time>
      </trkpt>
      <trkpt lat="44.70068" lon="1.96252">
        <ele>502.189</ele>
        <time>2018-07-31T13:09:41Z</time>
      </trkpt>
      <trkpt lat="44.70067" lon="1.96281">
        <ele>505.017</ele>
        <time>2018-07-31T13:09:21Z</time>
      </trkpt>
      <trkpt lat="44.70072" lon="1.96293">
        <ele>506.308</ele>
        <time>2018-07-31T13:09:01Z</time>
      </trkpt>
      <trkpt lat="44.70092" lon="1.9632">
        <ele>509.154</ele>
        <time>2018-07-31T13:08:41Z</time>
      </trkpt>
      <trkpt lat="44.70136" lon="1.96355">
        <ele>511.049</ele>
        <time>2018-07-31T13:08:21Z</time>
      </trkpt>
      <trkpt lat="44.70156" lon="1.96375">
        <ele>512.763</ele>
        <time>2018-07-31T13:08:01Z</time>
      </trkpt>
      <trkpt lat="44.70165" lon="1.9639">
        <ele>513.882</ele>
        <time>2018-07-31T13:07:41Z</time>
      </trkpt>
      <trkpt lat="44.70174" lon="1.96395">
        <ele>515.524</ele>
        <time>2018-07-31T13:07:21Z</time>
      </trkpt>
      <trkpt lat="44.70186" lon="1.96394">
        <ele>517.683</ele>
        <time>2018-07-31T13:07:01Z</time>
      </trkpt>
      <trkpt lat="44.70197" lon="1.96385">
        <ele>519.416</ele>
        <time>2018-07-31T13:06:41Z</time>
      </trkpt>
      <trkpt lat="44.70207" lon="1.96383">
        <ele>520.899</ele>
        <time>2018-07-31T13:06:21Z</time>
      </trkpt>
      <trkpt lat="44.70232" lon="1.96401">
        <ele>524.118</ele>
        <time>2018-07-31T13:06:01Z</time>
      </trkpt>
      <trkpt lat="44.70243" lon="1.96414">
        <ele>526.098</ele>
        <time>2018-07-31T13:05:41Z</time>
      </trkpt>
      <trkpt lat="44.7025" lon="1.96429">
        <ele>527.417</ele>
        <time>2018-07-31T13:05:21Z</time>
      </trkpt>
      <trkpt lat="44.70254" lon="1.96446">
        <ele>528.108</ele>
        <time>2018-07-31T13:05:01Z</time>
      </trkpt>
      <trkpt lat="44.70253" lon="1.96465">
        <ele>529.663</ele>
        <time>2018-07-31T13:04:41Z</time>
      </trkpt>
      <trkpt lat="44.70261" lon="1.96518">
        <ele>535.718</ele>
        <time>2018-07-31T13:04:21Z</time>
      </trkpt>
      <trkpt lat="44.70263" lon="1.96535">
        <ele>538.112</ele>
        <time>2018-07-31T13:04:01Z</time>
      </trkpt>
      <trkpt lat="44.70267" lon="1.96542">
        <ele>539.491</ele>
        <time>2018-07-31T13:03:41Z</time>
      </trkpt>
      <trkpt lat="44.70277" lon="1.96552">
        <ele>542.423</ele>
        <time>2018-07-31T13:03:21Z</time>
      </trkpt>
      <trkpt lat="44.703" lon="1.96555">
        <ele>544.532</ele>
        <time>2018-07-31T13:03:01Z</time>
      </trkpt>
      <trkpt lat="44.70308" lon="1.96558">
        <ele>545.585</ele>
        <time>2018-07-31T13:02:41Z</time>
      </trkpt>
      <trkpt lat="44.7031" lon="1.96567">
        <ele>547.058</ele>
        <time>2018-07-31T13:02:21Z</time>
      </trkpt>
      <trkpt lat="44.70312" lon="1.96589">
        <ele>549.741</ele>
        <time>2018-07-31T13:02:01Z</time>
      </trkpt>
      <trkpt lat="44.70311" lon="1.96604">
        <ele>550.381</ele>
        <time>2018-07-31T13:01:41Z</time>
      </trkpt>
      <trkpt lat="44.70303" lon="1.96612">
        <ele>549.609</ele>
        <time>2018-07-31T13:01:21Z</time>
      </trkpt>
      <trkpt lat="44.70292" lon="1.96625">
        <ele>547.508</ele>
        <time>2018-07-31T13:01:01Z</time>
      </trkpt>
      <trkpt lat="44.7029" lon="1.96635">
        <ele>546.956</ele>
        <time>2018-07-31T13:00:41Z</time>
      </trkpt>
      <trkpt lat="44.70298" lon="1.96651">
        <ele>546.211</ele>
        <time>2018-07-31T13:00:21Z</time>
      </trkpt>
      <trkpt lat="44.70303" lon="1.96669">
        <ele>544.555</ele>
        <time>2018-07-31T13:00:01Z</time>
      </trkpt>
      <trkpt lat="44.70303" lon="1.96718">
        <ele>540.564</ele>
        <time>2018-07-31T12:59:41Z</time>
      </trkpt>
      <trkpt lat="44.703" lon="1.96785">
        <ele>540.886</ele>
        <time>2018-07-31T12:59:21Z</time>
      </trkpt>
      <trkpt lat="44.70291" lon="1.96838">
        <ele>537.715</ele>
        <time>2018-07-31T12:59:01Z</time>
      </trkpt>
      <trkpt lat="44.70279" lon="1.96878">
        <ele>534.388</ele>
        <time>2018-07-31T12:58:41Z</time>
      </trkpt>
      <trkpt lat="44.70258" lon="1.9694">
        <ele>530.881</ele>
        <time>2018-07-31T12:58:21Z</time>
      </trkpt>
      <trkpt lat="44.70251" lon="1.96954">
        <ele>530.121</ele>
        <time>2018-07-31T12:58:01Z</time>
      </trkpt>
      <trkpt lat="44.70248" lon="1.96971">
        <ele>529.441</ele>
        <time>2018-07-31T12:57:41Z</time>
      </trkpt>
      <trkpt lat="44.70249" lon="1.96992">
        <ele>529.805</ele>
        <time>2018-07-31T12:57:21Z</time>
      </trkpt>
      <trkpt lat="44.70251" lon="1.97007">
        <ele>530.108</ele>
        <time>2018-07-31T12:57:01Z</time>
      </trkpt>
      <trkpt lat="44.7025" lon="1.97044">
        <ele>528.974</ele>
        <time>2018-07-31T12:56:41Z</time>
      </trkpt>
      <trkpt lat="44.70253" lon="1.97087">
        <ele>525.969</ele>
        <time>2018-07-31T12:56:21Z</time>
      </trkpt>
      <trkpt lat="44.70254" lon="1.97116">
        <ele>524.333</ele>
        <time>2018-07-31T12:56:01Z</time>
      </trkpt>
      <trkpt lat="44.70252" lon="1.97137">
        <ele>524.172</ele>
        <time>2018-07-31T12:55:41Z</time>
      </trkpt>
      <trkpt lat="44.7024" lon="1.9717">
        <ele>524.814</ele>
        <time>2018-07-31T12:55:21Z</time>
      </trkpt>
      <trkpt lat="44.70233" lon="1.97196">
        <ele>525.523</ele>
        <time>2018-07-31T12:55:01Z</time>
      </trkpt>
      <trkpt lat="44.70238" lon="1.97206">
        <ele>526.776</ele>
        <time>2018-07-31T12:54:41Z</time>
      </trkpt>
      <trkpt lat="44.70307" lon="1.97232">
        <ele>533.779</ele>
        <time>2018-07-31T12:54:21Z</time>
      </trkpt>
      <trkpt lat="44.70265" lon="1.97263">
        <ele>533.772</ele>
        <time>2018-07-31T12:54:01Z</time>
      </trkpt>
      <trkpt lat="44.70256" lon="1.97277">
        <ele>534.613</ele>
        <time>2018-07-31T12:53:41Z</time>
      </trkpt>
      <trkpt lat="44.70234" lon="1.97329">
        <ele>536.214</ele>
        <time>2018-07-31T12:53:21Z</time>
      </trkpt>
      <trkpt lat="44.70214" lon="1.97392">
        <ele>538.408</ele>
        <time>2018-07-31T12:53:01Z</time>
      </trkpt>
      <trkpt lat="44.70193" lon="1.9744">
        <ele>542.099</ele>
        <time>2018-07-31T12:52:41Z</time>
      </trkpt>
      <trkpt lat="44.70169" lon="1.97484">
        <ele>543.424</ele>
        <time>2018-07-31T12:52:21Z</time>
      </trkpt>
      <trkpt lat="44.70137" lon="1.97536">
        <ele>543.858</ele>
        <time>2018-07-31T12:52:01Z</time>
      </trkpt>
      <trkpt lat="44.70122" lon="1.97564">
        <ele>543.497</ele>
        <time>2018-07-31T12:51:41Z</time>
      </trkpt>
      <trkpt lat="44.70081" lon="1.97612">
        <ele>542.879</ele>
        <time>2018-07-31T12:51:21Z</time>
      </trkpt>
      <trkpt lat="44.70066" lon="1.97637">
        <ele>541.778</ele>
        <time>2018-07-31T12:51:01Z</time>
      </trkpt>
      <trkpt lat="44.70052" lon="1.97644">
        <ele>540.881</ele>
        <time>2018-07-31T12:50:41Z</time>
      </trkpt>
      <trkpt lat="44.70004" lon="1.97691">
        <ele>541.564</ele>
        <time>2018-07-31T12:50:21Z</time>
      </trkpt>
      <trkpt lat="44.69979" lon="1.97706">
        <ele>543.331</ele>
        <time>2018-07-31T12:50:01Z</time>
      </trkpt>
      <trkpt lat="44.69929" lon="1.97725">
        <ele>541.061</ele>
        <time>2018-07-31T12:49:41Z</time>
      </trkpt>
      <trkpt lat="44.69923" lon="1.97714">
        <ele>540.407</ele>
        <time>2018-07-31T12:49:21Z</time>
      </trkpt>
      <trkpt lat="44.69917" lon="1.97648">
        <ele>533.308</ele>
        <time>2018-07-31T12:49:01Z</time>
      </trkpt>
      <trkpt lat="44.69917" lon="1.97614">
        <ele>530.395</ele>
        <time>2018-07-31T12:48:41Z</time>
      </trkpt>
      <trkpt lat="44.69915" lon="1.97602">
        <ele>530.09</ele>
        <time>2018-07-31T12:48:21Z</time>
      </trkpt>
      <trkpt lat="44.69906" lon="1.9758">
        <ele>530.454</ele>
        <time>2018-07-31T12:48:01Z</time>
      </trkpt>
      <trkpt lat="44.69897" lon="1.97567">
        <ele>531.523</ele>
        <time>2018-07-31T12:47:41Z</time>
      </trkpt>
      <trkpt lat="44.69876" lon="1.97556">
        <ele>532.925</ele>
        <time>2018-07-31T12:47:21Z</time>
      </trkpt>
      <trkpt lat="44.69861" lon="1.97563">
        <ele>533.264</ele>
        <time>2018-07-31T12:47:01Z</time>
      </trkpt>
      <trkpt lat="44.6984" lon="1.97573">
        <ele>532.467</ele>
        <time>2018-07-31T12:46:41Z</time>
      </trkpt>
      <trkpt lat="44.69816" lon="1.97566">
        <ele>531.74</ele>
        <time>2018-07-31T12:46:21Z</time>
      </trkpt>
      <trkpt lat="44.69758" lon="1.97543">
        <ele>521.365</ele>
        <time>2018-07-31T12:46:01Z</time>
      </trkpt>
      <trkpt lat="44.69717" lon="1.97466">
        <ele>514.268</ele>
        <time>2018-07-31T12:45:41Z</time>
      </trkpt>
      <trkpt lat="44.69686" lon="1.9742">
        <ele>504.714</ele>
        <time>2018-07-31T12:45:21Z</time>
      </trkpt>
      <trkpt lat="44.69671" lon="1.97362">
        <ele>502.908</ele>
        <time>2018-07-31T12:45:01Z</time>
      </trkpt>
      <trkpt lat="44.69664" lon="1.97349">
        <ele>501.448</ele>
        <time>2018-07-31T12:44:41Z</time>
      </trkpt>
      <trkpt lat="44.69656" lon="1.97349">
        <ele>498.843</ele>
        <time>2018-07-31T12:44:21Z</time>
      </trkpt>
      <trkpt lat="44.69652" lon="1.97333">
        <ele>498.757</ele>
        <time>2018-07-31T12:44:01Z</time>
      </trkpt>
      <trkpt lat="44.69628" lon="1.97318">
        <ele>493.236</ele>
        <time>2018-07-31T12:43:41Z</time>
      </trkpt>
      <trkpt lat="44.69616" lon="1.97298">
        <ele>491.468</ele>
        <time>2018-07-31T12:43:21Z</time>
      </trkpt>
      <trkpt lat="44.69605" lon="1.97257">
        <ele>485.327</ele>
        <time>2018-07-31T12:43:01Z</time>
      </trkpt>
      <trkpt lat="44.69557" lon="1.97104">
        <ele>469.97</ele>
        <time>2018-07-31T12:42:41Z</time>
      </trkpt>
      <trkpt lat="44.69532" lon="1.97038">
        <ele>465.893</ele>
        <time>2018-07-31T12:42:21Z</time>
      </trkpt>
      <trkpt lat="44.69532" lon="1.97019">
        <ele>465.586</ele>
        <time>2018-07-31T12:42:01Z</time>
      </trkpt>
      <trkpt lat="44.69526" lon="1.97006">
        <ele>464.86</ele>
        <time>2018-07-31T12:41:41Z</time>
      </trkpt>
      <trkpt lat="44.69504" lon="1.9698">
        <ele>462.526</ele>
        <time>2018-07-31T12:41:21Z</time>
      </trkpt>
      <trkpt lat="44.69476" lon="1.96962">
        <ele>457.308</ele>
        <time>2018-07-31T12:41:01Z</time>
      </trkpt>
      <trkpt lat="44.69433" lon="1.96902">
        <ele>455.31</ele>
        <time>2018-07-31T12:40:41Z</time>
      </trkpt>
      <trkpt lat="44.69409" lon="1.96879">
        <ele>453.325</ele>
        <time>2018-07-31T12:40:21Z</time>
      </trkpt>
      <trkpt lat="44.69388" lon="1.96864">
        <ele>451.869</ele>
        <time>2018-07-31T12:40:01Z</time>
      </trkpt>
      <trkpt lat="44.69378" lon="1.9686">
        <ele>451.688</ele>
        <time>2018-07-31T12:39:41Z</time>
      </trkpt>
      <trkpt lat="44.6937" lon="1.96863">
        <ele>451.25</ele>
        <time>2018-07-31T12:39:21Z</time>
      </trkpt>
      <trkpt lat="44.69357" lon="1.96877">
        <ele>449.739</ele>
        <time>2018-07-31T12:39:01Z</time>
      </trkpt>
      <trkpt lat="44.6935" lon="1.9688">
        <ele>449.212</ele>
        <time>2018-07-31T12:38:41Z</time>
      </trkpt>
      <trkpt lat="44.69306" lon="1.96876">
        <ele>443.695</ele>
        <time>2018-07-31T12:38:21Z</time>
      </trkpt>
      <trkpt lat="44.69297" lon="1.96864">
        <ele>440.834</ele>
        <time>2018-07-31T12:38:01Z</time>
      </trkpt>
      <trkpt lat="44.69293" lon="1.96853">
        <ele>439.755</ele>
        <time>2018-07-31T12:37:41Z</time>
      </trkpt>
      <trkpt lat="44.69292" lon="1.96826">
        <ele>439.31</ele>
        <time>2018-07-31T12:37:21Z</time>
      </trkpt>
      <trkpt lat="44.69289" lon="1.9682">
        <ele>438.808</ele>
        <time>2018-07-31T12:37:01Z</time>
      </trkpt>
      <trkpt lat="44.69285" lon="1.96816">
        <ele>438.385</ele>
        <time>2018-07-31T12:36:41Z</time>
      </trkpt>
      <trkpt lat="44.69263" lon="1.96808">
        <ele>436.76</ele>
        <time>2018-07-31T12:36:21Z</time>
      </trkpt>
      <trkpt lat="44.6925" lon="1.96805">
        <ele>436.014</ele>
        <time>2018-07-31T12:36:01Z</time>
      </trkpt>
      <trkpt lat="44.69243" lon="1.96812">
        <ele>433.833</ele>
        <time>2018-07-31T12:35:41Z</time>
      </trkpt>
      <trkpt lat="44.69227" lon="1.96891">
        <ele>426.335</ele>
        <time>2018-07-31T12:35:21Z</time>
      </trkpt>
      <trkpt lat="44.69228" lon="1.96909">
        <ele>424.534</ele>
        <time>2018-07-31T12:35:01Z</time>
      </trkpt>
      <trkpt lat="44.6926" lon="1.96976">
        <ele>424.167</ele>
        <time>2018-07-31T12:34:41Z</time>
      </trkpt>
      <trkpt lat="44.69288" lon="1.97038">
        <ele>427.85</ele>
        <time>2018-07-31T12:34:21Z</time>
      </trkpt>
      <trkpt lat="44.69291" lon="1.97051">
        <ele>428.013</ele>
        <time>2018-07-31T12:34:01Z</time>
      </trkpt>
      <trkpt lat="44.69288" lon="1.97063">
        <ele>427.643</ele>
        <time>2018-07-31T12:33:41Z</time>
      </trkpt>
      <trkpt lat="44.69273" lon="1.97081">
        <ele>425.907</ele>
        <time>2018-07-31T12:33:21Z</time>
      </trkpt>
      <trkpt lat="44.69258" lon="1.97102">
        <ele>423.408</ele>
        <time>2018-07-31T12:33:01Z</time>
      </trkpt>
      <trkpt lat="44.69256" lon="1.97116">
        <ele>423.433</ele>
        <time>2018-07-31T12:32:41Z</time>
      </trkpt>
      <trkpt lat="44.69252" lon="1.97143">
        <ele>422.538</ele>
        <time>2018-07-31T12:32:21Z</time>
      </trkpt>
      <trkpt lat="44.69252" lon="1.9716">
        <ele>422.482</ele>
        <time>2018-07-31T12:32:01Z</time>
      </trkpt>
      <trkpt lat="44.69244" lon="1.97171">
        <ele>422.871</ele>
        <time>2018-07-31T12:31:41Z</time>
      </trkpt>
      <trkpt lat="44.69237" lon="1.97173">
        <ele>423.523</ele>
        <time>2018-07-31T12:31:21Z</time>
      </trkpt>
      <trkpt lat="44.69158" lon="1.9717">
        <ele>422.792</ele>
        <time>2018-07-31T12:31:01Z</time>
      </trkpt>
      <trkpt lat="44.69115" lon="1.97168">
        <ele>418.585</ele>
        <time>2018-07-31T12:30:41Z</time>
      </trkpt>
      <trkpt lat="44.69085" lon="1.97167">
        <ele>415.258</ele>
        <time>2018-07-31T12:30:21Z</time>
      </trkpt>
      <trkpt lat="44.69074" lon="1.97175">
        <ele>417.116</ele>
        <time>2018-07-31T12:30:01Z</time>
      </trkpt>
      <trkpt lat="44.69024" lon="1.97202">
        <ele>421.776</ele>
        <time>2018-07-31T12:29:41Z</time>
      </trkpt>
      <trkpt lat="44.68963" lon="1.97223">
        <ele>422.313</ele>
        <time>2018-07-31T12:29:21Z</time>
      </trkpt>
      <trkpt lat="44.68947" lon="1.97234">
        <ele>420.308</ele>
        <time>2018-07-31T12:29:01Z</time>
      </trkpt>
      <trkpt lat="44.6893" lon="1.97258">
        <ele>422.853</ele>
        <time>2018-07-31T12:28:41Z</time>
      </trkpt>
      <trkpt lat="44.68921" lon="1.97278">
        <ele>424.718</ele>
        <time>2018-07-31T12:28:21Z</time>
      </trkpt>
      <trkpt lat="44.68917" lon="1.97293">
        <ele>426.372</ele>
        <time>2018-07-31T12:28:01Z</time>
      </trkpt>
      <trkpt lat="44.68912" lon="1.97322">
        <ele>427.851</ele>
        <time>2018-07-31T12:27:41Z</time>
      </trkpt>
      <trkpt lat="44.6892" lon="1.9741">
        <ele>430.823</ele>
        <time>2018-07-31T12:27:21Z</time>
      </trkpt>
      <trkpt lat="44.6892" lon="1.97437">
        <ele>429.972</ele>
        <time>2018-07-31T12:27:01Z</time>
      </trkpt>
      <trkpt lat="44.68918" lon="1.97458">
        <ele>429.225</ele>
        <time>2018-07-31T12:26:41Z</time>
      </trkpt>
      <trkpt lat="44.68911" lon="1.97477">
        <ele>428.428</ele>
        <time>2018-07-31T12:26:21Z</time>
      </trkpt>
      <trkpt lat="44.68895" lon="1.97507">
        <ele>427.113</ele>
        <time>2018-07-31T12:26:01Z</time>
      </trkpt>
      <trkpt lat="44.68884" lon="1.97548">
        <ele>427.243</ele>
        <time>2018-07-31T12:25:41Z</time>
      </trkpt>
      <trkpt lat="44.68882" lon="1.97571">
        <ele>429.307</ele>
        <time>2018-07-31T12:25:21Z</time>
      </trkpt>
      <trkpt lat="44.68883" lon="1.97589">
        <ele>431.608</ele>
        <time>2018-07-31T12:25:01Z</time>
      </trkpt>
      <trkpt lat="44.68886" lon="1.97607">
        <ele>433.433</ele>
        <time>2018-07-31T12:24:41Z</time>
      </trkpt>
      <trkpt lat="44.68896" lon="1.97624">
        <ele>434.818</ele>
        <time>2018-07-31T12:24:21Z</time>
      </trkpt>
      <trkpt lat="44.68909" lon="1.97646">
        <ele>435.582</ele>
        <time>2018-07-31T12:24:01Z</time>
      </trkpt>
      <trkpt lat="44.68912" lon="1.97658">
        <ele>435.451</ele>
        <time>2018-07-31T12:23:41Z</time>
      </trkpt>
      <trkpt lat="44.68911" lon="1.97669">
        <ele>435.263</ele>
        <time>2018-07-31T12:23:21Z</time>
      </trkpt>
      <trkpt lat="44.68906" lon="1.97704">
        <ele>434.232</ele>
        <time>2018-07-31T12:23:01Z</time>
      </trkpt>
      <trkpt lat="44.689" lon="1.9773">
        <ele>434.175</ele>
        <time>2018-07-31T12:22:41Z</time>
      </trkpt>
      <trkpt lat="44.68887" lon="1.97767">
        <ele>434.118</ele>
        <time>2018-07-31T12:22:21Z</time>
      </trkpt>
      <trkpt lat="44.68857" lon="1.97831">
        <ele>433.223</ele>
        <time>2018-07-31T12:22:01Z</time>
      </trkpt>
      <trkpt lat="44.68834" lon="1.97877">
        <ele>432.283</ele>
        <time>2018-07-31T12:21:41Z</time>
      </trkpt>
      <trkpt lat="44.68825" lon="1.97894">
        <ele>432.011</ele>
        <time>2018-07-31T12:21:21Z</time>
      </trkpt>
      <trkpt lat="44.68793" lon="1.97963">
        <ele>428.008</ele>
        <time>2018-07-31T12:21:01Z</time>
      </trkpt>
      <trkpt lat="44.68771" lon="1.98001">
        <ele>428.194</ele>
        <time>2018-07-31T12:20:41Z</time>
      </trkpt>
      <trkpt lat="44.68749" lon="1.98075">
        <ele>428.149</ele>
        <time>2018-07-31T12:20:21Z</time>
      </trkpt>
      <trkpt lat="44.68742" lon="1.98089">
        <ele>426.613</ele>
        <time>2018-07-31T12:20:01Z</time>
      </trkpt>
      <trkpt lat="44.68707" lon="1.98145">
        <ele>421.332</ele>
        <time>2018-07-31T12:19:41Z</time>
      </trkpt>
      <trkpt lat="44.68697" lon="1.98181">
        <ele>419.164</ele>
        <time>2018-07-31T12:19:21Z</time>
      </trkpt>
      <trkpt lat="44.68694" lon="1.98202">
        <ele>417.793</ele>
        <time>2018-07-31T12:19:01Z</time>
      </trkpt>
      <trkpt lat="44.68697" lon="1.98254">
        <ele>417.336</ele>
        <time>2018-07-31T12:18:41Z</time>
      </trkpt>
      <trkpt lat="44.68695" lon="1.98283">
        <ele>416.959</ele>
        <time>2018-07-31T12:18:21Z</time>
      </trkpt>
      <trkpt lat="44.68691" lon="1.98287">
        <ele>416.053</ele>
        <time>2018-07-31T12:18:01Z</time>
      </trkpt>
      <trkpt lat="44.68681" lon="1.98268">
        <ele>414.904</ele>
        <time>2018-07-31T12:17:41Z</time>
      </trkpt>
      <trkpt lat="44.68662" lon="1.98231">
        <ele>413.114</ele>
        <time>2018-07-31T12:17:21Z</time>
      </trkpt>
      <trkpt lat="44.68648" lon="1.98214">
        <ele>411.608</ele>
        <time>2018-07-31T12:17:01Z</time>
      </trkpt>
      <trkpt lat="44.68634" lon="1.98204">
        <ele>410.787</ele>
        <time>2018-07-31T12:16:41Z</time>
      </trkpt>
      <trkpt lat="44.68612" lon="1.98203">
        <ele>406.112</ele>
        <time>2018-07-31T12:16:21Z</time>
      </trkpt>
      <trkpt lat="44.68557" lon="1.98233">
        <ele>399.726</ele>
        <time>2018-07-31T12:16:01Z</time>
      </trkpt>
      <trkpt lat="44.68531" lon="1.98237">
        <ele>397.785</ele>
        <time>2018-07-31T12:15:41Z</time>
      </trkpt>
      <trkpt lat="44.68489" lon="1.98236">
        <ele>393.187</ele>
        <time>2018-07-31T12:15:21Z</time>
      </trkpt>
      <trkpt lat="44.68474" lon="1.98234">
        <ele>391.386</ele>
        <time>2018-07-31T12:15:01Z</time>
      </trkpt>
      <trkpt lat="44.68425" lon="1.98212">
        <ele>384.919</ele>
        <time>2018-07-31T12:14:41Z</time>
      </trkpt>
      <trkpt lat="44.68416" lon="1.98206">
        <ele>383.522</ele>
        <time>2018-07-31T12:14:21Z</time>
      </trkpt>
      <trkpt lat="44.68356" lon="1.98212">
        <ele>375.891</ele>
        <time>2018-07-31T12:14:01Z</time>
      </trkpt>
      <trkpt lat="44.68333" lon="1.98214">
        <ele>372.481</ele>
        <time>2018-07-31T12:13:41Z</time>
      </trkpt>
      <trkpt lat="44.68305" lon="1.98211">
        <ele>369.619</ele>
        <time>2018-07-31T12:13:21Z</time>
      </trkpt>
      <trkpt lat="44.68287" lon="1.98202">
        <ele>367.308</ele>
        <time>2018-07-31T12:13:01Z</time>
      </trkpt>
      <trkpt lat="44.68267" lon="1.98196">
        <ele>366.151</ele>
        <time>2018-07-31T12:12:41Z</time>
      </trkpt>
      <trkpt lat="44.68246" lon="1.98194">
        <ele>365.516</ele>
        <time>2018-07-31T12:12:21Z</time>
      </trkpt>
      <trkpt lat="44.68227" lon="1.98183">
        <ele>362.77</ele>
        <time>2018-07-31T12:12:01Z</time>
      </trkpt>
      <trkpt lat="44.68212" lon="1.98173">
        <ele>359.699</ele>
        <time>2018-07-31T12:11:41Z</time>
      </trkpt>
      <trkpt lat="44.68202" lon="1.9817">
        <ele>357.651</ele>
        <time>2018-07-31T12:11:21Z</time>
      </trkpt>
      <trkpt lat="44.68166" lon="1.98193">
        <ele>354.03</ele>
        <time>2018-07-31T12:11:01Z</time>
      </trkpt>
      <trkpt lat="44.68158" lon="1.98204">
        <ele>353.263</ele>
        <time>2018-07-31T12:10:41Z</time>
      </trkpt>
      <trkpt lat="44.68144" lon="1.98245">
        <ele>351.156</ele>
        <time>2018-07-31T12:10:21Z</time>
      </trkpt>
      <trkpt lat="44.68137" lon="1.98276">
        <ele>349.087</ele>
        <time>2018-07-31T12:10:01Z</time>
      </trkpt>
      <trkpt lat="44.68136" lon="1.9831">
        <ele>346.542</ele>
        <time>2018-07-31T12:09:41Z</time>
      </trkpt>
      <trkpt lat="44.68146" lon="1.98333">
        <ele>345.326</ele>
        <time>2018-07-31T12:09:21Z</time>
      </trkpt>
      <trkpt lat="44.68157" lon="1.98342">
        <ele>344.808</ele>
        <time>2018-07-31T12:09:01Z</time>
      </trkpt>
      <trkpt lat="44.68179" lon="1.98348">
        <ele>344.91</ele>
        <time>2018-07-31T12:08:41Z</time>
      </trkpt>
      <trkpt lat="44.68184" lon="1.9836">
        <ele>343.815</ele>
        <time>2018-07-31T12:08:21Z</time>
      </trkpt>
      <trkpt lat="44.68182" lon="1.98384">
        <ele>342.719</ele>
        <time>2018-07-31T12:08:01Z</time>
      </trkpt>
      <trkpt lat="44.68172" lon="1.98397">
        <ele>342.388</ele>
        <time>2018-07-31T12:07:41Z</time>
      </trkpt>
      <trkpt lat="44.68155" lon="1.98415">
        <ele>341.24</ele>
        <time>2018-07-31T12:07:21Z</time>
      </trkpt>
      <trkpt lat="44.68149" lon="1.98438">
        <ele>342.089</ele>
        <time>2018-07-31T12:07:01Z</time>
      </trkpt>
      <trkpt lat="44.68141" lon="1.98453">
        <ele>342.752</ele>
        <time>2018-07-31T12:06:41Z</time>
      </trkpt>
      <trkpt lat="44.68127" lon="1.98458">
        <ele>342.885</ele>
        <time>2018-07-31T12:06:21Z</time>
      </trkpt>
      <trkpt lat="44.68084" lon="1.98462">
        <ele>343.561</ele>
        <time>2018-07-31T12:06:01Z</time>
      </trkpt>
      <trkpt lat="44.68024" lon="1.98477">
        <ele>344.121</ele>
        <time>2018-07-31T12:05:41Z</time>
      </trkpt>
      <trkpt lat="44.67999" lon="1.98477">
        <ele>342.713</ele>
        <time>2018-07-31T12:05:21Z</time>
      </trkpt>
      <trkpt lat="44.67986" lon="1.98487">
        <ele>343.908</ele>
        <time>2018-07-31T12:05:01Z</time>
      </trkpt>
      <trkpt lat="44.67908" lon="1.98517">
        <ele>340.088</ele>
        <time>2018-07-31T12:04:41Z</time>
      </trkpt>
      <trkpt lat="44.679" lon="1.98525">
        <ele>339.423</ele>
        <time>2018-07-31T12:04:21Z</time>
      </trkpt>
      <trkpt lat="44.67902" lon="1.98544">
        <ele>341.067</ele>
        <time>2018-07-31T12:04:01Z</time>
      </trkpt>
      <trkpt lat="44.67903" lon="1.98559">
        <ele>342.136</ele>
        <time>2018-07-31T12:03:41Z</time>
      </trkpt>
      <trkpt lat="44.6793" lon="1.98586">
        <ele>346.338</ele>
        <time>2018-07-31T12:03:21Z</time>
      </trkpt>
      <trkpt lat="44.67935" lon="1.98599">
        <ele>346.637</ele>
        <time>2018-07-31T12:03:01Z</time>
      </trkpt>
      <trkpt lat="44.6795" lon="1.98621">
        <ele>347.84</ele>
        <time>2018-07-31T12:02:41Z</time>
      </trkpt>
      <trkpt lat="44.67961" lon="1.98632">
        <ele>349.013</ele>
        <time>2018-07-31T12:02:21Z</time>
      </trkpt>
      <trkpt lat="44.68003" lon="1.98664">
        <ele>353.064</ele>
        <time>2018-07-31T12:02:01Z</time>
      </trkpt>
      <trkpt lat="44.6802" lon="1.98677">
        <ele>355.006</ele>
        <time>2018-07-31T12:01:41Z</time>
      </trkpt>
      <trkpt lat="44.68033" lon="1.98698">
        <ele>355.816</ele>
        <time>2018-07-31T12:01:21Z</time>
      </trkpt>
      <trkpt lat="44.68027" lon="1.98741">
        <ele>353.508</ele>
        <time>2018-07-31T12:01:01Z</time>
      </trkpt>
      <trkpt lat="44.68018" lon="1.98755">
        <ele>351.358</ele>
        <time>2018-07-31T12:00:41Z</time>
      </trkpt>
      <trkpt lat="44.67991" lon="1.98786">
        <ele>346.813</ele>
        <time>2018-07-31T12:00:21Z</time>
      </trkpt>
      <trkpt lat="44.67975" lon="1.98808">
        <ele>344.967</ele>
        <time>2018-07-31T12:00:01Z</time>
      </trkpt>
      <trkpt lat="44.67974" lon="1.9882">
        <ele>344.026</ele>
        <time>2018-07-31T11:59:41Z</time>
      </trkpt>
      <trkpt lat="44.67975" lon="1.98836">
        <ele>344.138</ele>
        <time>2018-07-31T11:59:21Z</time>
      </trkpt>
      <trkpt lat="44.67978" lon="1.98877">
        <ele>346.397</ele>
        <time>2018-07-31T11:59:01Z</time>
      </trkpt>
      <trkpt lat="44.67981" lon="1.98902">
        <ele>348.02</ele>
        <time>2018-07-31T11:58:41Z</time>
      </trkpt>
      <trkpt lat="44.6798" lon="1.98919">
        <ele>347.463</ele>
        <time>2018-07-31T11:58:21Z</time>
      </trkpt>
      <trkpt lat="44.67983" lon="1.98942">
        <ele>347.288</ele>
        <time>2018-07-31T11:58:01Z</time>
      </trkpt>
      <trkpt lat="44.67994" lon="1.98982">
        <ele>349.424</ele>
        <time>2018-07-31T11:57:41Z</time>
      </trkpt>
      <trkpt lat="44.68009" lon="1.99009">
        <ele>350.226</ele>
        <time>2018-07-31T11:57:21Z</time>
      </trkpt>
      <trkpt lat="44.68016" lon="1.99015">
        <ele>351.508</ele>
        <time>2018-07-31T11:57:01Z</time>
      </trkpt>
      <trkpt lat="44.68049" lon="1.99045">
        <ele>356.59</ele>
        <time>2018-07-31T11:56:41Z</time>
      </trkpt>
      <trkpt lat="44.6809" lon="1.99076">
        <ele>360.015</ele>
        <time>2018-07-31T11:56:21Z</time>
      </trkpt>
      <trkpt lat="44.68118" lon="1.99092">
        <ele>367.539</ele>
        <time>2018-07-31T11:56:01Z</time>
      </trkpt>
      <trkpt lat="44.68127" lon="1.99105">
        <ele>368.338</ele>
        <time>2018-07-31T11:55:41Z</time>
      </trkpt>
      <trkpt lat="44.68142" lon="1.99156">
        <ele>367.03</ele>
        <time>2018-07-31T11:55:21Z</time>
      </trkpt>
      <trkpt lat="44.68151" lon="1.99178">
        <ele>366.089</ele>
        <time>2018-07-31T11:55:01Z</time>
      </trkpt>
      <trkpt lat="44.68162" lon="1.99188">
        <ele>368.132</ele>
        <time>2018-07-31T11:54:41Z</time>
      </trkpt>
      <trkpt lat="44.68179" lon="1.99215">
        <ele>368.145</ele>
        <time>2018-07-31T11:54:21Z</time>
      </trkpt>
      <trkpt lat="44.6822" lon="1.99234">
        <ele>372.543</ele>
        <time>2018-07-31T11:54:01Z</time>
      </trkpt>
      <trkpt lat="44.68226" lon="1.99259">
        <ele>368.764</ele>
        <time>2018-07-31T11:53:41Z</time>
      </trkpt>
      <trkpt lat="44.68233" lon="1.99287">
        <ele>363.61</ele>
        <time>2018-07-31T11:53:21Z</time>
      </trkpt>
      <trkpt lat="44.68234" lon="1.99299">
        <ele>360.708</ele>
        <time>2018-07-31T11:53:01Z</time>
      </trkpt>
      <trkpt lat="44.68229" lon="1.99324">
        <ele>355.356</ele>
        <time>2018-07-31T11:52:41Z</time>
      </trkpt>
      <trkpt lat="44.68231" lon="1.99333">
        <ele>353.911</ele>
        <time>2018-07-31T11:52:21Z</time>
      </trkpt>
      <trkpt lat="44.68238" lon="1.99335">
        <ele>354.585</ele>
        <time>2018-07-31T11:52:01Z</time>
      </trkpt>
      <trkpt lat="44.68255" lon="1.99336">
        <ele>355.664</ele>
        <time>2018-07-31T11:51:41Z</time>
      </trkpt>
      <trkpt lat="44.68265" lon="1.9934">
        <ele>354.876</ele>
        <time>2018-07-31T11:51:21Z</time>
      </trkpt>
      <trkpt lat="44.68274" lon="1.9935">
        <ele>352.245</ele>
        <time>2018-07-31T11:51:01Z</time>
      </trkpt>
      <trkpt lat="44.68281" lon="1.99359">
        <ele>348.718</ele>
        <time>2018-07-31T11:50:41Z</time>
      </trkpt>
      <trkpt lat="44.68321" lon="1.99373">
        <ele>337.731</ele>
        <time>2018-07-31T11:50:21Z</time>
      </trkpt>
      <trkpt lat="44.68325" lon="1.9939">
        <ele>333.178</ele>
        <time>2018-07-31T11:50:01Z</time>
      </trkpt>
      <trkpt lat="44.68326" lon="1.99422">
        <ele>326.833</ele>
        <time>2018-07-31T11:49:41Z</time>
      </trkpt>
      <trkpt lat="44.68325" lon="1.99435">
        <ele>325.826</ele>
        <time>2018-07-31T11:49:21Z</time>
      </trkpt>
      <trkpt lat="44.68316" lon="1.99462">
        <ele>325.408</ele>
        <time>2018-07-31T11:49:01Z</time>
      </trkpt>
      <trkpt lat="44.68312" lon="1.99467">
        <ele>325.479</ele>
        <time>2018-07-31T11:48:41Z</time>
      </trkpt>
      <trkpt lat="44.68289" lon="1.99474">
        <ele>324.444</ele>
        <time>2018-07-31T11:48:21Z</time>
      </trkpt>
      <trkpt lat="44.68271" lon="1.99534">
        <ele>326.248</ele>
        <time>2018-07-31T11:48:01Z</time>
      </trkpt>
      <trkpt lat="44.68262" lon="1.99552">
        <ele>330.237</ele>
        <time>2018-07-31T11:47:41Z</time>
      </trkpt>
      <trkpt lat="44.68248" lon="1.99556">
        <ele>329.929</ele>
        <time>2018-07-31T11:47:21Z</time>
      </trkpt>
      <trkpt lat="44.68192" lon="1.99566">
        <ele>328.798</ele>
        <time>2018-07-31T11:47:01Z</time>
      </trkpt>
      <trkpt lat="44.68172" lon="1.99566">
        <ele>329.521</ele>
        <time>2018-07-31T11:46:41Z</time>
      </trkpt>
      <trkpt lat="44.68133" lon="1.99586">
        <ele>341.914</ele>
        <time>2018-07-31T11:46:21Z</time>
      </trkpt>
      <trkpt lat="44.68108" lon="1.99573">
        <ele>344.763</ele>
        <time>2018-07-31T11:46:01Z</time>
      </trkpt>
      <trkpt lat="44.68056" lon="1.9952">
        <ele>353.344</ele>
        <time>2018-07-31T11:45:41Z</time>
      </trkpt>
      <trkpt lat="44.68011" lon="1.99484">
        <ele>358.818</ele>
        <time>2018-07-31T11:45:21Z</time>
      </trkpt>
      <trkpt lat="44.67989" lon="1.99476">
        <ele>362.008</ele>
        <time>2018-07-31T11:45:01Z</time>
      </trkpt>
      <trkpt lat="44.67978" lon="1.99477">
        <ele>363.638</ele>
        <time>2018-07-31T11:44:41Z</time>
      </trkpt>
      <trkpt lat="44.67948" lon="1.9947">
        <ele>366.573</ele>
        <time>2018-07-31T11:44:21Z</time>
      </trkpt>
      <trkpt lat="44.67936" lon="1.99476">
        <ele>367.387</ele>
        <time>2018-07-31T11:44:01Z</time>
      </trkpt>
      <trkpt lat="44.67938" lon="1.99496">
        <ele>367.016</ele>
        <time>2018-07-31T11:43:41Z</time>
      </trkpt>
      <trkpt lat="44.67955" lon="1.99509">
        <ele>367.168</ele>
        <time>2018-07-31T11:43:21Z</time>
      </trkpt>
      <trkpt lat="44.67958" lon="1.99525">
        <ele>367.927</ele>
        <time>2018-07-31T11:43:01Z</time>
      </trkpt>
      <trkpt lat="44.67941" lon="1.99564">
        <ele>368.06</ele>
        <time>2018-07-31T11:42:41Z</time>
      </trkpt>
      <trkpt lat="44.67881" lon="1.99674">
        <ele>363.473</ele>
        <time>2018-07-31T11:42:21Z</time>
      </trkpt>
      <trkpt lat="44.67854" lon="1.99725">
        <ele>362.383</ele>
        <time>2018-07-31T11:42:01Z</time>
      </trkpt>
      <trkpt lat="44.67832" lon="1.99757">
        <ele>362.225</ele>
        <time>2018-07-31T11:41:41Z</time>
      </trkpt>
      <trkpt lat="44.67815" lon="1.99777">
        <ele>362.317</ele>
        <time>2018-07-31T11:41:21Z</time>
      </trkpt>
      <trkpt lat="44.67772" lon="1.99808">
        <ele>365.408</ele>
        <time>2018-07-31T11:41:01Z</time>
      </trkpt>
      <trkpt lat="44.67723" lon="1.99845">
        <ele>369.04</ele>
        <time>2018-07-31T11:40:41Z</time>
      </trkpt>
      <trkpt lat="44.6767" lon="1.99882">
        <ele>366.045</ele>
        <time>2018-07-31T11:40:21Z</time>
      </trkpt>
      <trkpt lat="44.6766" lon="1.99892">
        <ele>365.519</ele>
        <time>2018-07-31T11:40:01Z</time>
      </trkpt>
      <trkpt lat="44.67612" lon="1.99963">
        <ele>360.948</ele>
        <time>2018-07-31T11:39:41Z</time>
      </trkpt>
      <trkpt lat="44.67593" lon="1.99993">
        <ele>362.96</ele>
        <time>2018-07-31T11:39:21Z</time>
      </trkpt>
      <trkpt lat="44.67573" lon="2.00014">
        <ele>364.089</ele>
        <time>2018-07-31T11:39:01Z</time>
      </trkpt>
      <trkpt lat="44.67555" lon="2.00022">
        <ele>362.952</ele>
        <time>2018-07-31T11:38:41Z</time>
      </trkpt>
      <trkpt lat="44.67482" lon="2.00052">
        <ele>360.555</ele>
        <time>2018-07-31T11:38:21Z</time>
      </trkpt>
      <trkpt lat="44.67442" lon="2.00065">
        <ele>356.621</ele>
        <time>2018-07-31T11:38:01Z</time>
      </trkpt>
      <trkpt lat="44.6742" lon="2.00073">
        <ele>355.841</ele>
        <time>2018-07-31T11:37:41Z</time>
      </trkpt>
      <trkpt lat="44.67411" lon="2.00078">
        <ele>355.805</ele>
        <time>2018-07-31T11:37:21Z</time>
      </trkpt>
      <trkpt lat="44.67397" lon="2.00096">
        <ele>356.408</ele>
        <time>2018-07-31T11:37:01Z</time>
      </trkpt>
      <trkpt lat="44.6739" lon="2.00117">
        <ele>356.774</ele>
        <time>2018-07-31T11:36:41Z</time>
      </trkpt>
      <trkpt lat="44.6737" lon="2.00185">
        <ele>361.869</ele>
        <time>2018-07-31T11:36:21Z</time>
      </trkpt>
      <trkpt lat="44.67357" lon="2.0021">
        <ele>361.533</ele>
        <time>2018-07-31T11:36:01Z</time>
      </trkpt>
      <trkpt lat="44.67308" lon="2.00306">
        <ele>365.712</ele>
        <time>2018-07-31T11:35:41Z</time>
      </trkpt>
      <trkpt lat="44.67271" lon="2.00377">
        <ele>367.744</ele>
        <time>2018-07-31T11:35:21Z</time>
      </trkpt>
      <trkpt lat="44.67251" lon="2.00408">
        <ele>368.063</ele>
        <time>2018-07-31T11:35:01Z</time>
      </trkpt>
      <trkpt lat="44.67226" lon="2.0043">
        <ele>369.786</ele>
        <time>2018-07-31T11:34:41Z</time>
      </trkpt>
      <trkpt lat="44.67203" lon="2.00443">
        <ele>368.919</ele>
        <time>2018-07-31T11:34:21Z</time>
      </trkpt>
      <trkpt lat="44.67178" lon="2.00463">
        <ele>370.466</ele>
        <time>2018-07-31T11:34:01Z</time>
      </trkpt>
      <trkpt lat="44.67161" lon="2.00485">
        <ele>370.929</ele>
        <time>2018-07-31T11:33:41Z</time>
      </trkpt>
      <trkpt lat="44.6715" lon="2.00518">
        <ele>369.921</ele>
        <time>2018-07-31T11:33:21Z</time>
      </trkpt>
      <trkpt lat="44.6715" lon="2.00559">
        <ele>370.108</ele>
        <time>2018-07-31T11:33:01Z</time>
      </trkpt>
      <trkpt lat="44.6715" lon="2.00586">
        <ele>371.198</ele>
        <time>2018-07-31T11:32:41Z</time>
      </trkpt>
      <trkpt lat="44.67146" lon="2.00607">
        <ele>370.953</ele>
        <time>2018-07-31T11:32:21Z</time>
      </trkpt>
      <trkpt lat="44.6714" lon="2.00612">
        <ele>370.157</ele>
        <time>2018-07-31T11:32:01Z</time>
      </trkpt>
      <trkpt lat="44.67105" lon="2.00655">
        <ele>363.596</ele>
        <time>2018-07-31T11:31:41Z</time>
      </trkpt>
      <trkpt lat="44.67099" lon="2.00667">
        <ele>362.398</ele>
        <time>2018-07-31T11:31:21Z</time>
      </trkpt>
      <trkpt lat="44.67099" lon="2.00687">
        <ele>361.967</ele>
        <time>2018-07-31T11:31:01Z</time>
      </trkpt>
      <trkpt lat="44.67113" lon="2.00717">
        <ele>363.53</ele>
        <time>2018-07-31T11:30:41Z</time>
      </trkpt>
      <trkpt lat="44.67121" lon="2.00742">
        <ele>365.493</ele>
        <time>2018-07-31T11:30:21Z</time>
      </trkpt>
      <trkpt lat="44.67112" lon="2.00759">
        <ele>364.538</ele>
        <time>2018-07-31T11:30:01Z</time>
      </trkpt>
      <trkpt lat="44.67092" lon="2.00779">
        <ele>363.77</ele>
        <time>2018-07-31T11:29:41Z</time>
      </trkpt>
      <trkpt lat="44.67073" lon="2.00789">
        <ele>362.417</ele>
        <time>2018-07-31T11:29:21Z</time>
      </trkpt>
      <trkpt lat="44.67017" lon="2.00805">
        <ele>359.408</ele>
        <time>2018-07-31T11:29:01Z</time>
      </trkpt>
      <trkpt lat="44.66973" lon="2.00804">
        <ele>362.785</ele>
        <time>2018-07-31T11:28:41Z</time>
      </trkpt>
      <trkpt lat="44.66953" lon="2.00807">
        <ele>363.87</ele>
        <time>2018-07-31T11:28:21Z</time>
      </trkpt>
      <trkpt lat="44.66946" lon="2.00809">
        <ele>364.384</ele>
        <time>2018-07-31T11:28:01Z</time>
      </trkpt>
      <trkpt lat="44.66916" lon="2.00834">
        <ele>367.083</ele>
        <time>2018-07-31T11:27:41Z</time>
      </trkpt>
      <trkpt lat="44.66893" lon="2.0087">
        <ele>367.865</ele>
        <time>2018-07-31T11:27:21Z</time>
      </trkpt>
      <trkpt lat="44.66879" lon="2.00878">
        <ele>365.114</ele>
        <time>2018-07-31T11:27:01Z</time>
      </trkpt>
      <trkpt lat="44.66851" lon="2.00911">
        <ele>363.987</ele>
        <time>2018-07-31T11:26:41Z</time>
      </trkpt>
      <trkpt lat="44.6682" lon="2.00978">
        <ele>367.78</ele>
        <time>2018-07-31T11:26:21Z</time>
      </trkpt>
      <trkpt lat="44.66808" lon="2.00981">
        <ele>367.438</ele>
        <time>2018-07-31T11:26:01Z</time>
      </trkpt>
      <trkpt lat="44.66797" lon="2.00971">
        <ele>365.67</ele>
        <time>2018-07-31T11:25:41Z</time>
      </trkpt>
      <trkpt lat="44.66773" lon="2.00939">
        <ele>360.317</ele>
        <time>2018-07-31T11:25:21Z</time>
      </trkpt>
      <trkpt lat="44.66754" lon="2.00913">
        <ele>357.708</ele>
        <time>2018-07-31T11:25:01Z</time>
      </trkpt>
      <trkpt lat="44.66742" lon="2.00905">
        <ele>357.275</ele>
        <time>2018-07-31T11:24:41Z</time>
      </trkpt>
      <trkpt lat="44.66728" lon="2.00906">
        <ele>357.24</ele>
        <time>2018-07-31T11:24:21Z</time>
      </trkpt>
      <trkpt lat="44.66713" lon="2.00912">
        <ele>356.394</ele>
        <time>2018-07-31T11:24:01Z</time>
      </trkpt>
      <trkpt lat="44.66656" lon="2.00954">
        <ele>354.923</ele>
        <time>2018-07-31T11:23:41Z</time>
      </trkpt>
      <trkpt lat="44.66644" lon="2.00967">
        <ele>354.965</ele>
        <time>2018-07-31T11:23:21Z</time>
      </trkpt>
      <trkpt lat="44.66631" lon="2.0098">
        <ele>354.214</ele>
        <time>2018-07-31T11:23:01Z</time>
      </trkpt>
      <trkpt lat="44.66619" lon="2.0098">
        <ele>352.117</ele>
        <time>2018-07-31T11:22:41Z</time>
      </trkpt>
      <trkpt lat="44.66604" lon="2.00977">
        <ele>349.87</ele>
        <time>2018-07-31T11:22:21Z</time>
      </trkpt>
      <trkpt lat="44.66549" lon="2.00986">
        <ele>346.785</ele>
        <time>2018-07-31T11:22:01Z</time>
      </trkpt>
      <trkpt lat="44.66484" lon="2.01007">
        <ele>348.989</ele>
        <time>2018-07-31T11:21:41Z</time>
      </trkpt>
      <trkpt lat="44.66438" lon="2.00972">
        <ele>344.517</ele>
        <time>2018-07-31T11:21:21Z</time>
      </trkpt>
      <trkpt lat="44.66425" lon="2.00968">
        <ele>344.808</ele>
        <time>2018-07-31T11:21:01Z</time>
      </trkpt>
      <trkpt lat="44.6638" lon="2.00902">
        <ele>351.17</ele>
        <time>2018-07-31T11:20:41Z</time>
      </trkpt>
      <trkpt lat="44.66344" lon="2.0084">
        <ele>357.395</ele>
        <time>2018-07-31T11:20:21Z</time>
      </trkpt>
      <trkpt lat="44.66333" lon="2.00826">
        <ele>358.949</ele>
        <time>2018-07-31T11:20:01Z</time>
      </trkpt>
      <trkpt lat="44.66309" lon="2.00805">
        <ele>362.998</ele>
        <time>2018-07-31T11:19:41Z</time>
      </trkpt>
      <trkpt lat="44.66258" lon="2.00759">
        <ele>370.89</ele>
        <time>2018-07-31T11:19:21Z</time>
      </trkpt>
      <trkpt lat="44.66237" lon="2.00735">
        <ele>372.479</ele>
        <time>2018-07-31T11:19:01Z</time>
      </trkpt>
      <trkpt lat="44.66221" lon="2.00716">
        <ele>373.472</ele>
        <time>2018-07-31T11:18:41Z</time>
      </trkpt>
      <trkpt lat="44.66208" lon="2.00709">
        <ele>374.515</ele>
        <time>2018-07-31T11:18:21Z</time>
      </trkpt>
      <trkpt lat="44.66183" lon="2.00699">
        <ele>377.589</ele>
        <time>2018-07-31T11:18:01Z</time>
      </trkpt>
      <trkpt lat="44.66159" lon="2.00694">
        <ele>379.806</ele>
        <time>2018-07-31T11:17:41Z</time>
      </trkpt>
      <trkpt lat="44.6615" lon="2.007">
        <ele>380.926</ele>
        <time>2018-07-31T11:17:21Z</time>
      </trkpt>
      <trkpt lat="44.66136" lon="2.0071">
        <ele>381.808</ele>
        <time>2018-07-31T11:17:01Z</time>
      </trkpt>
      <trkpt lat="44.66096" lon="2.0077">
        <ele>379.47</ele>
        <time>2018-07-31T11:16:41Z</time>
      </trkpt>
      <trkpt lat="44.66064" lon="2.00826">
        <ele>376.455</ele>
        <time>2018-07-31T11:16:21Z</time>
      </trkpt>
      <trkpt lat="44.66056" lon="2.00839">
        <ele>375.149</ele>
        <time>2018-07-31T11:16:01Z</time>
      </trkpt>
      <trkpt lat="44.66048" lon="2.00865">
        <ele>372.798</ele>
        <time>2018-07-31T11:15:41Z</time>
      </trkpt>
      <trkpt lat="44.66037" lon="2.00913">
        <ele>370.87</ele>
        <time>2018-07-31T11:15:21Z</time>
      </trkpt>
      <trkpt lat="44.66027" lon="2.00938">
        <ele>371.059</ele>
        <time>2018-07-31T11:15:01Z</time>
      </trkpt>
      <trkpt lat="44.66017" lon="2.00956">
        <ele>370.652</ele>
        <time>2018-07-31T11:14:41Z</time>
      </trkpt>
      <trkpt lat="44.66008" lon="2.00969">
        <ele>370.095</ele>
        <time>2018-07-31T11:14:21Z</time>
      </trkpt>
      <trkpt lat="44.65992" lon="2.00982">
        <ele>369.144</ele>
        <time>2018-07-31T11:14:01Z</time>
      </trkpt>
      <trkpt lat="44.65919" lon="2.01015">
        <ele>371.605</ele>
        <time>2018-07-31T11:13:41Z</time>
      </trkpt>
      <trkpt lat="44.65874" lon="2.01028">
        <ele>374.015</ele>
        <time>2018-07-31T11:13:21Z</time>
      </trkpt>
      <trkpt lat="44.65865" lon="2.01031">
        <ele>373.808</ele>
        <time>2018-07-31T11:13:01Z</time>
      </trkpt>
      <trkpt lat="44.65862" lon="2.01036">
        <ele>374.586</ele>
        <time>2018-07-31T11:12:41Z</time>
      </trkpt>
      <trkpt lat="44.65861" lon="2.01044">
        <ele>375.891</ele>
        <time>2018-07-31T11:12:21Z</time>
      </trkpt>
      <trkpt lat="44.65865" lon="2.01067">
        <ele>380.455</ele>
        <time>2018-07-31T11:12:01Z</time>
      </trkpt>
      <trkpt lat="44.65863" lon="2.01098">
        <ele>384.264</ele>
        <time>2018-07-31T11:11:41Z</time>
      </trkpt>
      <trkpt lat="44.65854" lon="2.01148">
        <ele>384.636</ele>
        <time>2018-07-31T11:11:21Z</time>
      </trkpt>
      <trkpt lat="44.65846" lon="2.01199">
        <ele>386.235</ele>
        <time>2018-07-31T11:11:01Z</time>
      </trkpt>
      <trkpt lat="44.65841" lon="2.01213">
        <ele>386.858</ele>
        <time>2018-07-31T11:10:41Z</time>
      </trkpt>
      <trkpt lat="44.65834" lon="2.01216">
        <ele>386.841</ele>
        <time>2018-07-31T11:10:21Z</time>
      </trkpt>
      <trkpt lat="44.65798" lon="2.01207">
        <ele>384.999</ele>
        <time>2018-07-31T11:10:01Z</time>
      </trkpt>
      <trkpt lat="44.65768" lon="2.01208">
        <ele>382.407</ele>
        <time>2018-07-31T11:09:41Z</time>
      </trkpt>
      <trkpt lat="44.65706" lon="2.01207">
        <ele>377.627</ele>
        <time>2018-07-31T11:09:21Z</time>
      </trkpt>
      <trkpt lat="44.657" lon="2.01215">
        <ele>377.908</ele>
        <time>2018-07-31T11:09:01Z</time>
      </trkpt>
      <trkpt lat="44.65694" lon="2.0127">
        <ele>379.731</ele>
        <time>2018-07-31T11:08:41Z</time>
      </trkpt>
      <trkpt lat="44.65696" lon="2.01315">
        <ele>380.526</ele>
        <time>2018-07-31T11:08:21Z</time>
      </trkpt>
      <trkpt lat="44.65699" lon="2.01355">
        <ele>381.34</ele>
        <time>2018-07-31T11:08:01Z</time>
      </trkpt>
      <trkpt lat="44.65705" lon="2.01371">
        <ele>381.279</ele>
        <time>2018-07-31T11:07:41Z</time>
      </trkpt>
      <trkpt lat="44.65716" lon="2.01382">
        <ele>380.341</ele>
        <time>2018-07-31T11:07:21Z</time>
      </trkpt>
      <trkpt lat="44.65781" lon="2.014">
        <ele>375.44</ele>
        <time>2018-07-31T11:07:01Z</time>
      </trkpt>
      <trkpt lat="44.65812" lon="2.01399">
        <ele>374.443</ele>
        <time>2018-07-31T11:06:41Z</time>
      </trkpt>
      <trkpt lat="44.6583" lon="2.01399">
        <ele>374.156</ele>
        <time>2018-07-31T11:06:21Z</time>
      </trkpt>
      <trkpt lat="44.65834" lon="2.01401">
        <ele>373.478</ele>
        <time>2018-07-31T11:06:01Z</time>
      </trkpt>
      <trkpt lat="44.65835" lon="2.01405">
        <ele>372.433</ele>
        <time>2018-07-31T11:05:41Z</time>
      </trkpt>
      <trkpt lat="44.65831" lon="2.01414">
        <ele>369.826</ele>
        <time>2018-07-31T11:05:21Z</time>
      </trkpt>
      <trkpt lat="44.65792" lon="2.01447">
        <ele>362.708</ele>
        <time>2018-07-31T11:05:01Z</time>
      </trkpt>
      <trkpt lat="44.65763" lon="2.01471">
        <ele>358.399</ele>
        <time>2018-07-31T11:04:41Z</time>
      </trkpt>
      <trkpt lat="44.65741" lon="2.01494">
        <ele>355.284</ele>
        <time>2018-07-31T11:04:21Z</time>
      </trkpt>
      <trkpt lat="44.6573" lon="2.0151">
        <ele>352.618</ele>
        <time>2018-07-31T11:04:01Z</time>
      </trkpt>
      <trkpt lat="44.65695" lon="2.01519">
        <ele>349.097</ele>
        <time>2018-07-31T11:03:41Z</time>
      </trkpt>
      <trkpt lat="44.65675" lon="2.0152">
        <ele>345.369</ele>
        <time>2018-07-31T11:03:21Z</time>
      </trkpt>
      <trkpt lat="44.65664" lon="2.01519">
        <ele>343.838</ele>
        <time>2018-07-31T11:03:01Z</time>
      </trkpt>
      <trkpt lat="44.65648" lon="2.01512">
        <ele>343.011</ele>
        <time>2018-07-31T11:02:41Z</time>
      </trkpt>
      <trkpt lat="44.65631" lon="2.01507">
        <ele>341.774</ele>
        <time>2018-07-31T11:02:21Z</time>
      </trkpt>
      <trkpt lat="44.65598" lon="2.01497">
        <ele>339.783</ele>
        <time>2018-07-31T11:02:01Z</time>
      </trkpt>
      <trkpt lat="44.65573" lon="2.0149">
        <ele>336.525</ele>
        <time>2018-07-31T11:01:41Z</time>
      </trkpt>
      <trkpt lat="44.65569" lon="2.0149">
        <ele>335.617</ele>
        <time>2018-07-31T11:01:21Z</time>
      </trkpt>
      <trkpt lat="44.65563" lon="2.01498">
        <ele>332.708</ele>
        <time>2018-07-31T11:01:01Z</time>
      </trkpt>
      <trkpt lat="44.65549" lon="2.01503">
        <ele>329.95</ele>
        <time>2018-07-31T11:00:41Z</time>
      </trkpt>
      <trkpt lat="44.6552" lon="2.01524">
        <ele>323.465</ele>
        <time>2018-07-31T11:00:21Z</time>
      </trkpt>
      <trkpt lat="44.65488" lon="2.01554">
        <ele>317.759</ele>
        <time>2018-07-31T11:00:01Z</time>
      </trkpt>
      <trkpt lat="44.65463" lon="2.01578">
        <ele>314.818</ele>
        <time>2018-07-31T10:59:41Z</time>
      </trkpt>
      <trkpt lat="44.65437" lon="2.01597">
        <ele>313.32</ele>
        <time>2018-07-31T10:59:21Z</time>
      </trkpt>
      <trkpt lat="44.65414" lon="2.01609">
        <ele>312.599</ele>
        <time>2018-07-31T10:59:01Z</time>
      </trkpt>
      <trkpt lat="44.65393" lon="2.01617">
        <ele>310.562</ele>
        <time>2018-07-31T10:58:41Z</time>
      </trkpt>
      <trkpt lat="44.65366" lon="2.01631">
        <ele>306.745</ele>
        <time>2018-07-31T10:58:21Z</time>
      </trkpt>
      <trkpt lat="44.65342" lon="2.01641">
        <ele>303.822</ele>
        <time>2018-07-31T10:58:01Z</time>
      </trkpt>
      <trkpt lat="44.65304" lon="2.01645">
        <ele>301.362</ele>
        <time>2018-07-31T10:57:41Z</time>
      </trkpt>
      <trkpt lat="44.65286" lon="2.0164">
        <ele>301.908</ele>
        <time>2018-07-31T10:57:21Z</time>
      </trkpt>
      <trkpt lat="44.65261" lon="2.0164">
        <ele>299.208</ele>
        <time>2018-07-31T10:57:01Z</time>
      </trkpt>
      <trkpt lat="44.65241" lon="2.01645">
        <ele>295.114</ele>
        <time>2018-07-31T10:56:41Z</time>
      </trkpt>
      <trkpt lat="44.65119" lon="2.01652">
        <ele>280.759</ele>
        <time>2018-07-31T10:56:21Z</time>
      </trkpt>
      <trkpt lat="44.65078" lon="2.01661">
        <ele>277.973</ele>
        <time>2018-07-31T10:56:01Z</time>
      </trkpt>
      <trkpt lat="44.65039" lon="2.01666">
        <ele>273.592</ele>
        <time>2018-07-31T10:55:41Z</time>
      </trkpt>
      <trkpt lat="44.65028" lon="2.01668">
        <ele>272.924</ele>
        <time>2018-07-31T10:55:21Z</time>
      </trkpt>
      <trkpt lat="44.65009" lon="2.01675">
        <ele>271.873</ele>
        <time>2018-07-31T10:55:01Z</time>
      </trkpt>
      <trkpt lat="44.64997" lon="2.01693">
        <ele>270.296</ele>
        <time>2018-07-31T10:54:41Z</time>
      </trkpt>
      <trkpt lat="44.64986" lon="2.01729">
        <ele>269.289</ele>
        <time>2018-07-31T10:54:21Z</time>
      </trkpt>
      <trkpt lat="44.64969" lon="2.01753">
        <ele>267.947</ele>
        <time>2018-07-31T10:54:01Z</time>
      </trkpt>
      <trkpt lat="44.64956" lon="2.01775">
        <ele>267.429</ele>
        <time>2018-07-31T10:53:41Z</time>
      </trkpt>
      <trkpt lat="44.64936" lon="2.0181">
        <ele>267.121</ele>
        <time>2018-07-31T10:53:21Z</time>
      </trkpt>
      <trkpt lat="44.64912" lon="2.01851">
        <ele>264.608</ele>
        <time>2018-07-31T10:53:01Z</time>
      </trkpt>
      <trkpt lat="44.64907" lon="2.01872">
        <ele>263.826</ele>
        <time>2018-07-31T10:52:41Z</time>
      </trkpt>
      <trkpt lat="44.64901" lon="2.01894">
        <ele>263.771</ele>
        <time>2018-07-31T10:52:21Z</time>
      </trkpt>
      <trkpt lat="44.64869" lon="2.01949">
        <ele>264.465</ele>
        <time>2018-07-31T10:52:01Z</time>
      </trkpt>
      <trkpt lat="44.64848" lon="2.01988">
        <ele>266.284</ele>
        <time>2018-07-31T10:51:41Z</time>
      </trkpt>
      <trkpt lat="44.6482" lon="2.02022">
        <ele>268.516</ele>
        <time>2018-07-31T10:51:21Z</time>
      </trkpt>
      <trkpt lat="44.64783" lon="2.0204">
        <ele>269.255</ele>
        <time>2018-07-31T10:51:01Z</time>
      </trkpt>
      <trkpt lat="44.6476" lon="2.0205">
        <ele>267.418</ele>
        <time>2018-07-31T10:50:41Z</time>
      </trkpt>
      <trkpt lat="44.64746" lon="2.02057">
        <ele>266.231</ele>
        <time>2018-07-31T10:50:21Z</time>
      </trkpt>
      <trkpt lat="44.64643" lon="2.02082">
        <ele>260.837</ele>
        <time>2018-07-31T10:50:01Z</time>
      </trkpt>
      <trkpt lat="44.64542" lon="2.02154">
        <ele>257.149</ele>
        <time>2018-07-31T10:49:41Z</time>
      </trkpt>
      <trkpt lat="44.64529" lon="2.02172">
        <ele>257.313</ele>
        <time>2018-07-31T10:49:21Z</time>
      </trkpt>
      <trkpt lat="44.64465" lon="2.02223">
        <ele>256.308</ele>
        <time>2018-07-31T10:49:01Z</time>
      </trkpt>
      <trkpt lat="44.64449" lon="2.02228">
        <ele>257.215</ele>
        <time>2018-07-31T10:48:41Z</time>
      </trkpt>
      <trkpt lat="44.64413" lon="2.02259">
        <ele>260.87</ele>
        <time>2018-07-31T10:48:21Z</time>
      </trkpt>
      <trkpt lat="44.64376" lon="2.02289">
        <ele>257.564</ele>
        <time>2018-07-31T10:48:01Z</time>
      </trkpt>
      <trkpt lat="44.64352" lon="2.02307">
        <ele>257.583</ele>
        <time>2018-07-31T10:47:41Z</time>
      </trkpt>
      <trkpt lat="44.64275" lon="2.02362">
        <ele>260.465</ele>
        <time>2018-07-31T10:47:21Z</time>
      </trkpt>
      <trkpt lat="44.64261" lon="2.02369">
        <ele>262.154</ele>
        <time>2018-07-31T10:47:01Z</time>
      </trkpt>
      <trkpt lat="44.6424" lon="2.02383">
        <ele>263.097</ele>
        <time>2018-07-31T10:46:41Z</time>
      </trkpt>
      <trkpt lat="44.64226" lon="2.02398">
        <ele>262.59</ele>
        <time>2018-07-31T10:46:21Z</time>
      </trkpt>
      <trkpt lat="44.64213" lon="2.02414">
        <ele>261.858</ele>
        <time>2018-07-31T10:46:01Z</time>
      </trkpt>
      <trkpt lat="44.64203" lon="2.02435">
        <ele>261.652</ele>
        <time>2018-07-31T10:45:41Z</time>
      </trkpt>
      <trkpt lat="44.64187" lon="2.02466">
        <ele>261.517</ele>
        <time>2018-07-31T10:45:21Z</time>
      </trkpt>
      <trkpt lat="44.64161" lon="2.02504">
        <ele>261.808</ele>
        <time>2018-07-31T10:45:01Z</time>
      </trkpt>
      <trkpt lat="44.64141" lon="2.02527">
        <ele>261.437</ele>
        <time>2018-07-31T10:44:41Z</time>
      </trkpt>
      <trkpt lat="44.6412" lon="2.02544">
        <ele>257.962</ele>
        <time>2018-07-31T10:44:21Z</time>
      </trkpt>
      <trkpt lat="44.64075" lon="2.02609">
        <ele>256.066</ele>
        <time>2018-07-31T10:44:01Z</time>
      </trkpt>
      <trkpt lat="44.64045" lon="2.02635">
        <ele>254.425</ele>
        <time>2018-07-31T10:43:41Z</time>
      </trkpt>
      <trkpt lat="44.64002" lon="2.02672">
        <ele>251.617</ele>
        <time>2018-07-31T10:43:21Z</time>
      </trkpt>
      <trkpt lat="44.63979" lon="2.02695">
        <ele>253.016</ele>
        <time>2018-07-31T10:43:01Z</time>
      </trkpt>
      <trkpt lat="44.63929" lon="2.0273">
        <ele>253.819</ele>
        <time>2018-07-31T10:42:41Z</time>
      </trkpt>
      <trkpt lat="44.63832" lon="2.02795">
        <ele>252.462</ele>
        <time>2018-07-31T10:42:21Z</time>
      </trkpt>
      <trkpt lat="44.63805" lon="2.02811">
        <ele>251.191</ele>
        <time>2018-07-31T10:42:01Z</time>
      </trkpt>
      <trkpt lat="44.63784" lon="2.02823">
        <ele>254.681</ele>
        <time>2018-07-31T10:41:41Z</time>
      </trkpt>
      <trkpt lat="44.63771" lon="2.02826">
        <ele>255.919</ele>
        <time>2018-07-31T10:41:21Z</time>
      </trkpt>
      <trkpt lat="44.63757" lon="2.02825">
        <ele>255.908</ele>
        <time>2018-07-31T10:41:01Z</time>
      </trkpt>
      <trkpt lat="44.63725" lon="2.02805">
        <ele>251.971</ele>
        <time>2018-07-31T10:40:41Z</time>
      </trkpt>
      <trkpt lat="44.63697" lon="2.028">
        <ele>250.666</ele>
        <time>2018-07-31T10:40:21Z</time>
      </trkpt>
      <trkpt lat="44.63638" lon="2.02795">
        <ele>248.33</ele>
        <time>2018-07-31T10:40:01Z</time>
      </trkpt>
      <trkpt lat="44.63624" lon="2.02794">
        <ele>248.649</ele>
        <time>2018-07-31T10:39:41Z</time>
      </trkpt>
      <trkpt lat="44.63611" lon="2.02792">
        <ele>248.581</ele>
        <time>2018-07-31T10:39:21Z</time>
      </trkpt>
      <trkpt lat="44.63595" lon="2.02783">
        <ele>246.51</ele>
        <time>2018-07-31T10:39:01Z</time>
      </trkpt>
      <trkpt lat="44.63583" lon="2.02784">
        <ele>246.243</ele>
        <time>2018-07-31T10:38:41Z</time>
      </trkpt>
      <trkpt lat="44.63558" lon="2.02792">
        <ele>243.986</ele>
        <time>2018-07-31T10:38:21Z</time>
      </trkpt>
      <trkpt lat="44.63545" lon="2.02798">
        <ele>243.579</ele>
        <time>2018-07-31T10:38:01Z</time>
      </trkpt>
      <trkpt lat="44.63467" lon="2.02827">
        <ele>240.505</ele>
        <time>2018-07-31T10:37:41Z</time>
      </trkpt>
      <trkpt lat="44.63463" lon="2.02835">
        <ele>240.825</ele>
        <time>2018-07-31T10:37:21Z</time>
      </trkpt>
      <trkpt lat="44.63456" lon="2.02847">
        <ele>240.808</ele>
        <time>2018-07-31T10:37:01Z</time>
      </trkpt>
      <trkpt lat="44.6342" lon="2.02868">
        <ele>238.059</ele>
        <time>2018-07-31T10:36:41Z</time>
      </trkpt>
      <trkpt lat="44.63398" lon="2.02885">
        <ele>239.184</ele>
        <time>2018-07-31T10:36:21Z</time>
      </trkpt>
      <trkpt lat="44.63391" lon="2.02893">
        <ele>239.328</ele>
        <time>2018-07-31T10:36:01Z</time>
      </trkpt>
      <trkpt lat="44.63381" lon="2.02905">
        <ele>239.587</ele>
        <time>2018-07-31T10:35:41Z</time>
      </trkpt>
      <trkpt lat="44.6336" lon="2.0292">
        <ele>240.719</ele>
        <time>2018-07-31T10:35:21Z</time>
      </trkpt>
      <trkpt lat="44.63345" lon="2.02923">
        <ele>242.198</ele>
        <time>2018-07-31T10:35:01Z</time>
      </trkpt>
      <trkpt lat="44.63331" lon="2.02922">
        <ele>242.671</ele>
        <time>2018-07-31T10:34:41Z</time>
      </trkpt>
      <trkpt lat="44.6332" lon="2.02913">
        <ele>241.924</ele>
        <time>2018-07-31T10:34:21Z</time>
      </trkpt>
      <trkpt lat="44.633" lon="2.02894">
        <ele>240.766</ele>
        <time>2018-07-31T10:34:01Z</time>
      </trkpt>
      <trkpt lat="44.63286" lon="2.02879">
        <ele>240.029</ele>
        <time>2018-07-31T10:33:41Z</time>
      </trkpt>
      <trkpt lat="44.63274" lon="2.02868">
        <ele>239.221</ele>
        <time>2018-07-31T10:33:21Z</time>
      </trkpt>
      <trkpt lat="44.63266" lon="2.02867">
        <ele>239.408</ele>
        <time>2018-07-31T10:33:01Z</time>
      </trkpt>
      <trkpt lat="44.6325" lon="2.02867">
        <ele>240.038</ele>
        <time>2018-07-31T10:32:41Z</time>
      </trkpt>
      <trkpt lat="44.63209" lon="2.02869">
        <ele>242.673</ele>
        <time>2018-07-31T10:32:21Z</time>
      </trkpt>
      <trkpt lat="44.63185" lon="2.0288">
        <ele>241.377</ele>
        <time>2018-07-31T10:32:01Z</time>
      </trkpt>
      <trkpt lat="44.63163" lon="2.02897">
        <ele>239.046</ele>
        <time>2018-07-31T10:31:41Z</time>
      </trkpt>
      <trkpt lat="44.6315" lon="2.02905">
        <ele>239.488</ele>
        <time>2018-07-31T10:31:21Z</time>
      </trkpt>
      <trkpt lat="44.63126" lon="2.02911">
        <ele>240.437</ele>
        <time>2018-07-31T10:31:01Z</time>
      </trkpt>
      <trkpt lat="44.63096" lon="2.02916">
        <ele>241.47</ele>
        <time>2018-07-31T10:30:41Z</time>
      </trkpt>
      <trkpt lat="44.63045" lon="2.02916">
        <ele>238.923</ele>
        <time>2018-07-31T10:30:21Z</time>
      </trkpt>
      <trkpt lat="44.63009" lon="2.02922">
        <ele>237.188</ele>
        <time>2018-07-31T10:30:01Z</time>
      </trkpt>
      <trkpt lat="44.62982" lon="2.02935">
        <ele>237.824</ele>
        <time>2018-07-31T10:29:41Z</time>
      </trkpt>
      <trkpt lat="44.62932" lon="2.02967">
        <ele>241.726</ele>
        <time>2018-07-31T10:29:21Z</time>
      </trkpt>
      <trkpt lat="44.62888" lon="2.02958">
        <ele>239.908</ele>
        <time>2018-07-31T10:29:01Z</time>
      </trkpt>
      <trkpt lat="44.62853" lon="2.02946">
        <ele>237.34</ele>
        <time>2018-07-31T10:28:41Z</time>
      </trkpt>
      <trkpt lat="44.62837" lon="2.02941">
        <ele>236.885</ele>
        <time>2018-07-31T10:28:21Z</time>
      </trkpt>
      <trkpt lat="44.62814" lon="2.02937">
        <ele>233.399</ele>
        <time>2018-07-31T10:28:01Z</time>
      </trkpt>
      <trkpt lat="44.62791" lon="2.02951">
        <ele>231.568</ele>
        <time>2018-07-31T10:27:41Z</time>
      </trkpt>
      <trkpt lat="44.6276" lon="2.02979">
        <ele>231.52</ele>
        <time>2018-07-31T10:27:21Z</time>
      </trkpt>
      <trkpt lat="44.62736" lon="2.02992">
        <ele>232.579</ele>
        <time>2018-07-31T10:27:01Z</time>
      </trkpt>
      <trkpt lat="44.6273" lon="2.02995">
        <ele>233.232</ele>
        <time>2018-07-31T10:26:41Z</time>
      </trkpt>
      <trkpt lat="44.62711" lon="2.02994">
        <ele>236.045</ele>
        <time>2018-07-31T10:26:21Z</time>
      </trkpt>
      <trkpt lat="44.62655" lon="2.02971">
        <ele>236.523</ele>
        <time>2018-07-31T10:26:01Z</time>
      </trkpt>
      <trkpt lat="44.62635" lon="2.02964">
        <ele>234.783</ele>
        <time>2018-07-31T10:25:41Z</time>
      </trkpt>
      <trkpt lat="44.62616" lon="2.02965">
        <ele>233.011</ele>
        <time>2018-07-31T10:25:21Z</time>
      </trkpt>
      <trkpt lat="44.62597" lon="2.02969">
        <ele>230.808</ele>
        <time>2018-07-31T10:25:01Z</time>
      </trkpt>
      <trkpt lat="44.62542" lon="2.02993">
        <ele>228.574</ele>
        <time>2018-07-31T10:24:41Z</time>
      </trkpt>
      <trkpt lat="44.62478" lon="2.0302">
        <ele>226.429</ele>
        <time>2018-07-31T10:24:21Z</time>
      </trkpt>
      <trkpt lat="44.62439" lon="2.03031">
        <ele>221.183</ele>
        <time>2018-07-31T10:24:01Z</time>
      </trkpt>
      <trkpt lat="44.6239" lon="2.03037">
        <ele>221.092</ele>
        <time>2018-07-31T10:23:41Z</time>
      </trkpt>
      <trkpt lat="44.6236" lon="2.03038">
        <ele>222.134</ele>
        <time>2018-07-31T10:23:21Z</time>
      </trkpt>
      <trkpt lat="44.62285" lon="2.0304">
        <ele>225.643</ele>
        <time>2018-07-31T10:23:01Z</time>
      </trkpt>
      <trkpt lat="44.62253" lon="2.03027">
        <ele>222.046</ele>
        <time>2018-07-31T10:22:41Z</time>
      </trkpt>
      <trkpt lat="44.62231" lon="2.03019">
        <ele>222.259</ele>
        <time>2018-07-31T10:22:21Z</time>
      </trkpt>
      <trkpt lat="44.62214" lon="2.03019">
        <ele>223.073</ele>
        <time>2018-07-31T10:22:01Z</time>
      </trkpt>
      <trkpt lat="44.622" lon="2.03021">
        <ele>223.885</ele>
        <time>2018-07-31T10:21:41Z</time>
      </trkpt>
      <trkpt lat="44.62187" lon="2.03025">
        <ele>223.813</ele>
        <time>2018-07-31T10:21:21Z</time>
      </trkpt>
      <trkpt lat="44.6216" lon="2.0303">
        <ele>222.208</ele>
        <time>2018-07-31T10:21:01Z</time>
      </trkpt>
      <trkpt lat="44.62141" lon="2.03039">
        <ele>223.259</ele>
        <time>2018-07-31T10:20:41Z</time>
      </trkpt>
      <trkpt lat="44.6213" lon="2.03051">
        <ele>223.954</ele>
        <time>2018-07-31T10:20:21Z</time>
      </trkpt>
      <trkpt lat="44.62118" lon="2.03071">
        <ele>225.648</ele>
        <time>2018-07-31T10:20:01Z</time>
      </trkpt>
      <trkpt lat="44.62117" lon="2.03083">
        <ele>227.247</ele>
        <time>2018-07-31T10:19:41Z</time>
      </trkpt>
      <trkpt lat="44.62115" lon="2.03088">
        <ele>227.919</ele>
        <time>2018-07-31T10:19:21Z</time>
      </trkpt>
      <trkpt lat="44.62104" lon="2.03093">
        <ele>228.858</ele>
        <time>2018-07-31T10:19:01Z</time>
      </trkpt>
      <trkpt lat="44.62091" lon="2.03092">
        <ele>228.861</ele>
        <time>2018-07-31T10:18:41Z</time>
      </trkpt>
      <trkpt lat="44.62082" lon="2.03091">
        <ele>228.844</ele>
        <time>2018-07-31T10:18:21Z</time>
      </trkpt>
      <trkpt lat="44.62052" lon="2.03091">
        <ele>230.074</ele>
        <time>2018-07-31T10:18:01Z</time>
      </trkpt>
      <trkpt lat="44.61982" lon="2.03084">
        <ele>224.356</ele>
        <time>2018-07-31T10:17:41Z</time>
      </trkpt>
      <trkpt lat="44.61959" lon="2.03086">
        <ele>223.221</ele>
        <time>2018-07-31T10:17:21Z</time>
      </trkpt>
      <trkpt lat="44.61945" lon="2.0309">
        <ele>223.508</ele>
        <time>2018-07-31T10:17:01Z</time>
      </trkpt>
      <trkpt lat="44.61895" lon="2.03117">
        <ele>223.549</ele>
        <time>2018-07-31T10:16:41Z</time>
      </trkpt>
      <trkpt lat="44.61863" lon="2.03133">
        <ele>221.764</ele>
        <time>2018-07-31T10:16:21Z</time>
      </trkpt>
      <trkpt lat="44.61851" lon="2.03137">
        <ele>220.778</ele>
        <time>2018-07-31T10:16:01Z</time>
      </trkpt>
      <trkpt lat="44.61811" lon="2.03141">
        <ele>219.477</ele>
        <time>2018-07-31T10:15:41Z</time>
      </trkpt>
      <trkpt lat="44.61784" lon="2.03149">
        <ele>219.729</ele>
        <time>2018-07-31T10:15:21Z</time>
      </trkpt>
      <trkpt lat="44.61751" lon="2.0317">
        <ele>219.788</ele>
        <time>2018-07-31T10:15:01Z</time>
      </trkpt>
      <trkpt lat="44.61733" lon="2.03184">
        <ele>223.231</ele>
        <time>2018-07-31T10:14:41Z</time>
      </trkpt>
      <trkpt lat="44.61713" lon="2.03187">
        <ele>226.134</ele>
        <time>2018-07-31T10:14:21Z</time>
      </trkpt>
      <trkpt lat="44.61699" lon="2.0318">
        <ele>225.679</ele>
        <time>2018-07-31T10:14:01Z</time>
      </trkpt>
      <trkpt lat="44.61685" lon="2.03164">
        <ele>221.805</ele>
        <time>2018-07-31T10:13:41Z</time>
      </trkpt>
      <trkpt lat="44.61659" lon="2.03121">
        <ele>215.325</ele>
        <time>2018-07-31T10:13:21Z</time>
      </trkpt>
      <trkpt lat="44.61648" lon="2.03108">
        <ele>213.708</ele>
        <time>2018-07-31T10:13:01Z</time>
      </trkpt>
      <trkpt lat="44.61639" lon="2.03094">
        <ele>212.179</ele>
        <time>2018-07-31T10:12:41Z</time>
      </trkpt>
      <trkpt lat="44.61621" lon="2.03066">
        <ele>210.444</ele>
        <time>2018-07-31T10:12:21Z</time>
      </trkpt>
      <trkpt lat="44.61617" lon="2.03059">
        <ele>210.068</ele>
        <time>2018-07-31T10:12:01Z</time>
      </trkpt>
      <trkpt lat="44.61613" lon="2.0305">
        <ele>209.777</ele>
        <time>2018-07-31T10:11:41Z</time>
      </trkpt>
      <trkpt lat="44.61605" lon="2.03047">
        <ele>209.689</ele>
        <time>2018-07-31T10:11:21Z</time>
      </trkpt>
      <trkpt lat="44.61572" lon="2.03046">
        <ele>208.488</ele>
        <time>2018-07-31T10:11:01Z</time>
      </trkpt>
      <trkpt lat="44.61482" lon="2.03049">
        <ele>205.961</ele>
        <time>2018-07-31T10:10:41Z</time>
      </trkpt>
      <trkpt lat="44.61456" lon="2.03048">
        <ele>205.214</ele>
        <time>2018-07-31T10:10:21Z</time>
      </trkpt>
      <trkpt lat="44.61451" lon="2.03042">
        <ele>205.082</ele>
        <time>2018-07-31T10:10:01Z</time>
      </trkpt>
      <trkpt lat="44.61439" lon="2.03045">
        <ele>205.043</ele>
        <time>2018-07-31T10:09:41Z</time>
      </trkpt>
      <trkpt lat="44.61403" lon="2.03037">
        <ele>203.417</ele>
        <time>2018-07-31T10:09:21Z</time>
      </trkpt>
      <trkpt lat="44.6137" lon="2.0304">
        <ele>200.308</ele>
        <time>2018-07-31T10:09:01Z</time>
      </trkpt>
      <trkpt lat="44.61297" lon="2.03039">
        <ele>202.41</ele>
        <time>2018-07-31T10:08:41Z</time>
      </trkpt>
      <trkpt lat="44.61269" lon="2.03033">
        <ele>204.225</ele>
        <time>2018-07-31T10:08:21Z</time>
      </trkpt>
      <trkpt lat="44.61234" lon="2.03019">
        <ele>205.339</ele>
        <time>2018-07-31T10:08:01Z</time>
      </trkpt>
      <trkpt lat="44.61197" lon="2.03009">
        <ele>207.158</ele>
        <time>2018-07-31T10:07:41Z</time>
      </trkpt>
      <trkpt lat="44.61166" lon="2.02987">
        <ele>205.61</ele>
        <time>2018-07-31T10:07:21Z</time>
      </trkpt>
    </trkseg>
  </trk>
</gpx>